• Join FlightAware (Why Join?)
  • Login
  • US Flag 
01:04PM EST


 

Airport Tracker/Info


-or-


 

Live Flight TrackerFlight Track Log ✈ AIC164 ✈ 10-Mar-2014 ✈ KCHS - VIDP / DEL

Flight Track Log - Related Links

Times and Time Zones

All times are in EDT time to prevent confusion due to time zone crossing. See the AIC164 flight status page for this flight to view local times or setup timezone preferences in your user account.

Time Position Orientation Groundspeed Altitude Reporting Facility
EDT Latitude Longitude Course Direction KTS MPH feet Rate Location/Type
11:22AM 32.9906 -79.8711 34° Northeast 301 346 6,700  Level Jacksonville Center
11:23AM 33.0047 -79.7717 80° East 312 359 9,300 2,100 Climbing Jacksonville Center
11:24AM 33.0378 -79.6714 69° East 312 359 10,900 1,440 Climbing Jacksonville Center
11:25AM 41.1189 -72.0692 45° Northeast  Level FlightAware Approximate
11:25AM 33.0956 -79.5700 56° Northeast 336 387 12,200  Level Jacksonville Center
11:26AM 41.2328 -71.9616 34° Northeast  Level FlightAware Approximate
11:26AM 33.1553 -79.4539 58° Northeast 373 429 14,600  Level Jacksonville Center
11:27AM 33.2358 -79.3514 47° Northeast 411 473 16,800 2,160 Climbing Jacksonville Center
11:28AM 33.3361 -79.2828 30° Northeast 405 466 19,000 2,040 Climbing Jacksonville Center
11:29AM 33.4428 -79.2161 28° Northeast 411 473 20,900 1,980 Climbing Jacksonville Center
11:30AM 33.5511 -79.1444 29° Northeast 419 482 23,000 1,800 Climbing Jacksonville Center
11:31AM 33.6678 -79.0694 28° Northeast 426 490 24,600 1,500 Climbing Jacksonville Center
11:32AM 33.7717 -78.9800 36° Northeast 443 510 26,000 1,440 Climbing Jacksonville Center
11:33AM 33.8747 -78.8756 40° Northeast 456 525 27,500 1,140 Climbing Jacksonville Center
11:34AM 34.0394 -78.7094 40° Northeast 480 552 29,200 960 Climbing Washington Center
11:35AM 34.1486 -78.6006 40° Northeast 492 566 30,100 840 Climbing Washington Center
11:36AM 34.2556 -78.4914 40° Northeast 499 574 31,000 360 Climbing Washington Center
11:37AM 34.3647 -78.3769 41° Northeast 504 580 30,900 -60 Descending Washington Center
11:38AM 34.4717 -78.2672 40° Northeast 504 580 30,900 300 Level Washington Center
11:39AM 34.5806 -78.1550 40° Northeast 504 580 31,600 1,020 Climbing Washington Center
11:40AM 34.6892 -78.0422 40° Northeast 504 580 33,000 1,380 Climbing Washington Center
11:41AM 34.7936 -77.9339 40° Northeast 504 580 34,500 1,080 Climbing Washington Center
11:42AM 34.8958 -77.8206 42° Northeast 497 572 35,200 720 Climbing Washington Center
11:43AM 35.0022 -77.7092 41° Northeast 497 572 36,000 420 Climbing Washington Center
11:44AM 35.1064 -77.6003 41° Northeast 491 565 36,100 300 Climbing Washington Center
11:45AM 35.2247 -77.5092 32° Northeast 491 565 36,700 420 Climbing Washington Center
11:46AM 35.3450 -77.4281 29° Northeast 491 565 37,000 120 Climbing Washington Center
11:47AM 35.4650 -77.3439 30° Northeast 491 565 37,000  Level Washington Center
11:48AM 35.5831 -77.2597 30° Northeast 491 565 37,000  Level Washington Center
11:49AM 35.7053 -77.1753 29° Northeast 491 565 37,000 -60 Level Washington Center
11:50AM 35.8211 -77.0931 30° Northeast 485 558 36,900 -60 Descending Washington Center
11:51AM 35.9433 -77.0056 30° Northeast 485 558 36,900  Level Washington Center
11:52AM 36.0653 -76.9231 29° Northeast 491 565 37,000  Climbing Washington Center
11:53AM 36.1850 -76.8400 29° Northeast 491 565 37,000  Level Washington Center
11:54AM 36.3047 -76.7519 31° Northeast 491 565 37,000 -60 Level Washington Center
11:55AM 36.4244 -76.6683 29° Northeast 491 565 36,900 -60 Descending Washington Center
11:56AM 36.5464 -76.5822 30° Northeast 491 565 36,900  Level Washington Center
11:57AM 36.6658 -76.4931 31° Northeast 491 565 36,900  Level Washington Center
11:58AM 36.7939 -76.3958 31° Northeast 491 565 37,000  Climbing Washington Center
11:59AM 36.9111 -76.3114 30° Northeast 491 565 37,000  Level Washington Center
12:00PM 37.0264 -76.2267 30° Northeast 491 565 37,000  Level Washington Center
12:01PM 37.1186 -76.1622 29° Northeast 491 565 37,000 240 Level Washington Center
12:07PM 37.8394 -75.6273 31° Northeast 469 540 38,800 240 Climbing FlightAware ADS-B (KWWD)
12:08PM 37.9131 -75.5721 31° Northeast 467 537 39,000 120 Climbing FlightAware ADS-B (KWWD)
12:09PM 38.0068 -75.5017 32° Northeast 473 544 39,000  Level FlightAware ADS-B (KWWD)
12:10PM 38.1213 -75.3967 40° Northeast 485 558 39,000  Level FlightAware ADS-B (KWWD)
12:11PM 38.2026 -75.3118 40° Northeast 497 572 39,000  Level FlightAware ADS-B (KWWD)
12:11PM 38.2854 -75.2251 40° Northeast 503 579 39,000  Level FlightAware ADS-B (KWWD)
12:12PM 38.3802 -75.1252 40° Northeast 505 581 39,000  Level FlightAware ADS-B (KWWD)
12:13PM 38.4195 -75.0838 40° Northeast 507 583 39,000  Level FlightAware ADS-B (KWWD)
12:14PM 38.5408 -74.9557 40° Northeast 507 583 39,000  Level FlightAware ADS-B (KWWD)
12:15PM 38.5821 -74.9119 40° Northeast 508 585 39,000  Level FlightAware ADS-B (KWWD)
12:15PM 38.5821 -74.9119 40° Northeast 520 598 39,000  Level FlightAware ADS-B (KPVU)
12:16PM 38.7640 -74.7181 40° Northeast 520 598 39,000  Level FlightAware ADS-B
12:18PM 38.9570 -74.5116 40° Northeast 518 596 39,000  Level FlightAware ADS-B (KPVU)
12:18PM 39.0439 -74.4179 40° Northeast 518 596 39,000  Level FlightAware ADS-B (KPVU)
12:19PM 39.0703 -74.3894 41° Northeast 512 589 39,000  Level FlightAware ADS-B (KWWD)
12:19PM 39.1365 -74.3179 40° Northeast 517 595 39,000  Level FlightAware ADS-B (KPVU)
12:20PM 39.1705 -74.2810 40° Northeast 517 595 39,000  Level FlightAware ADS-B (KPVU)
12:20PM 39.2748 -74.1675 41° Northeast 513 590 39,000  Level FlightAware ADS-B (KWWD)
12:21PM 39.3836 -74.0487 41° Northeast 513 590 39,000  Level FlightAware ADS-B (KWWD)
12:22PM 39.4516 -73.9741 41° Northeast 519 597 39,000  Level FlightAware ADS-B (KSNC)
12:23PM 39.5471 -73.8693 40° Northeast 519 597 39,000  Level FlightAware ADS-B (KSNC)
12:24PM 39.6264 -73.7818 41° Northeast 514 592 39,000  Level FlightAware ADS-B (KSNC)
12:24PM 39.6318 -73.7758 41° Northeast 512 589 39,000  Level FlightAware ADS-B (KWWD)
12:25PM 39.7752 -73.6425 29° Northeast 485 558 39,000  Level FlightAware ADS-B (KSNC)
12:25PM 39.8172 -73.6123 29° Northeast 485 558 39,000  Level FlightAware ADS-B (KPVU)
12:26PM 39.8724 -73.5723 29° Northeast 486 559 39,000  Level FlightAware ADS-B (KSNC)
12:26PM 39.9301 -73.5305 29° Northeast 489 563 39,000  Level FlightAware ADS-B (KSNC)
12:27PM 39.9819 -73.4929 29° Northeast 492 566 39,000  Level FlightAware ADS-B (KSNC)
12:27PM 40.0485 -73.4445 30° Northeast 478 550 39,000  Level FlightAware ADS-B (KWWD)
12:28PM 40.0561 -73.4390 29° Northeast 489 563 39,000  Level FlightAware ADS-B (KSNC)
12:29PM 40.2302 -73.3118 29° Northeast 489 563 39,000  Level FlightAware ADS-B (KSNC)
12:29PM 40.2921 -73.2664 29° Northeast 489 563 39,000  Level FlightAware ADS-B (KSNC)
12:30PM 40.3659 -73.2123 29° Northeast 489 563 39,000  Level FlightAware ADS-B (KSNC)
12:31PM 40.4239 -73.1696 29° Northeast 490 564 39,000  Level FlightAware ADS-B (KSNC)
12:31PM 40.5206 -73.0981 29° Northeast 490 564 39,000  Level FlightAware ADS-B (KSNC)
12:32PM 40.5740 -73.0586 30° Northeast 492 566 39,000  Level FlightAware ADS-B (KSNC)
12:33PM 40.6615 -72.9937 30° Northeast 493 567 39,000  Level FlightAware ADS-B (KSNC)
12:33PM 40.7350 -72.9389 30° Northeast 495 570 39,000  Level FlightAware ADS-B (KSNC)
12:34PM 40.8089 -72.8840 30° Northeast 502 578 39,000  Level FlightAware ADS-B (KSNC)
12:34PM 40.8777 -72.8324 30° Northeast 506 582 39,000  Level FlightAware ADS-B (KSNC)
12:35PM 40.9721 -72.7616 30° Northeast 511 588 39,000  Level FlightAware ADS-B (KSNC)
12:36PM 41.0360 -72.7135 30° Northeast 512 589 39,000  Level FlightAware ADS-B (KSNC)
12:36PM 41.1202 -72.6500 30° Northeast 510 587 39,000  Level FlightAware ADS-B (KSNC)
12:37PM 41.1766 -72.6072 30° Northeast 509 586 39,000  Level FlightAware ADS-B (KSNC)
12:38PM 41.2379 -72.5608 30° Northeast 508 585 39,000  Level FlightAware ADS-B (KSNC)
12:38PM 41.3320 -72.4893 30° Northeast 507 583 39,000  Level FlightAware ADS-B (KSNC)
12:39PM 41.4121 -72.4283 30° Northeast 508 585 39,000  Level FlightAware ADS-B (KSNC)
12:39PM 41.4914 -72.3678 30° Northeast 508 585 39,000  Level FlightAware ADS-B (KSNC)
12:40PM 41.5468 -72.3253 30° Northeast 508 585 39,000  Level FlightAware ADS-B (KSNC)
12:41PM 41.6992 -72.2081 30° Northeast 507 583 39,000  Level FlightAware ADS-B (KSNC)
12:42PM 41.7548 -72.1651 30° Northeast 507 583 39,000  Level FlightAware ADS-B (KSNC)
12:42PM 41.8242 -72.1115 30° Northeast 506 582 39,000  Level FlightAware ADS-B (KSNC)
12:43PM 41.9016 -72.0515 30° Northeast 507 583 39,000  Level FlightAware ADS-B (KSNC)
12:43PM 41.9794 -71.9909 30° Northeast 507 583 39,000  Level FlightAware ADS-B
12:44PM 42.0401 -71.9435 30° Northeast 507 583 39,000  Level FlightAware ADS-B
12:44PM 42.0997 -71.8970 31° Northeast 501 577 39,000  Level FlightAware ADS-B
12:45PM 42.1552 -71.8535 30° Northeast 507 583 39,000  Level FlightAware ADS-B (KSNC)
12:45PM 42.2431 -71.7844 31° Northeast 501 577 39,000  Level FlightAware ADS-B
12:46PM 42.2630 -71.7688 31° Northeast 501 577 39,000  Level FlightAware ADS-B
12:46PM 42.3384 -71.7093 30° Northeast 508 585 39,000  Level FlightAware ADS-B (KSNC)
12:46PM 42.3526 -71.6981 30° Northeast 507 583 39,000  Level FlightAware ADS-B (KBOS)
12:47PM 42.4177 -71.6466 30° Northeast 506 582 39,000  Level FlightAware ADS-B
12:47PM 42.4857 -71.5926 31° Northeast 505 581 39,000  Level FlightAware ADS-B
12:48PM 42.4954 -71.5849 31° Northeast 505 581 39,000  Level FlightAware ADS-B (KOWD)
12:48PM 42.5661 -71.5287 31° Northeast 504 580 39,000  Level FlightAware ADS-B
12:49PM 42.6395 -71.4702 31° Northeast 503 579 39,000  Level FlightAware ADS-B (KBOS)
12:49PM 42.7056 -71.4173 31° Northeast 503 579 39,000  Level FlightAware ADS-B
12:50PM 42.7696 -71.3660 31° Northeast 503 579 39,000  Level FlightAware ADS-B (KBOS)
12:50PM 42.8352 -71.3133 31° Northeast 502 578 39,000  Level FlightAware ADS-B (KBOS)
12:51PM 42.8975 -71.2632 31° Northeast 502 578 39,000  Level FlightAware ADS-B (KBOS)
12:51PM 42.9458 -71.2242 31° Northeast 502 578 39,000  Level FlightAware ADS-B (KBOS)
12:52PM 43.0228 -71.1619 31° Northeast 502 578 39,000  Level FlightAware ADS-B
12:52PM 43.0738 -71.1204 31° Northeast 501 577 39,000  Level FlightAware ADS-B (KBOS)
12:53PM 43.1451 -71.0626 31° Northeast 502 578 39,000  Level FlightAware ADS-B
12:53PM 43.2044 -71.0143 31° Northeast 502 578 39,000  Level FlightAware ADS-B
12:54PM 43.2689 -70.9617 31° Northeast 501 577 39,000  Level FlightAware ADS-B (KBOS)
12:55PM 43.3413 -70.9023 31° Northeast 502 578 39,000  Level FlightAware ADS-B (KBOS)
12:55PM 43.3880 -70.8640 30° Northeast 502 578 39,000  Level FlightAware ADS-B
12:55PM 43.4024 -70.8521 31° Northeast 501 577 39,000  Level FlightAware ADS-B (KBOS)
12:56PM 43.4480 -70.8140 30° Northeast 501 577 39,000  Level FlightAware ADS-B
12:56PM 43.4805 -70.7878 31° Northeast 501 577 39,000  Level FlightAware ADS-B (KBOS)
12:56PM 43.5344 -70.7433 31° Northeast 501 577 39,000  Level FlightAware ADS-B (KBOS)
12:57PM 43.5960 -70.6920 31° Northeast 501 577 39,000  Level FlightAware ADS-B
12:57PM 43.6014 -70.6878 32° Northeast 494 568 39,000  Level FlightAware ADS-B
12:57PM 43.6564 -70.6421 31° Northeast 501 577 39,000  Level FlightAware ADS-B (CYQI)
12:58PM 43.7261 -70.5842 31° Northeast 501 577 39,000  Level FlightAware ADS-B (KBOS)
12:59PM 43.7238 -70.5861 31° Northeast 501 577 39,000  Level FlightAware ADS-B (CYQI)
01:00PM 43.9794 -70.3721 32° Northeast 495 570 39,000  Level FlightAware ADS-B
01:00PM 43.9481 -70.3985 31° Northeast 502 578 39,000  Level FlightAware ADS-B (CYQI)
01:00PM 44.0191 -70.3387 31° Northeast 502 578 39,000  Level FlightAware ADS-B (CYQI)
01:01PM 44.0881 -70.2804 32° Northeast 496 571 39,000  Level FlightAware ADS-B
01:01PM 44.1522 -70.2264 31° Northeast 504 580 39,000  Level FlightAware ADS-B
01:02PM 44.2163 -70.1720 31° Northeast 505 581 39,000  Level FlightAware ADS-B (CYQI)
01:03PM 44.2800 -70.1178 32° Northeast 506 582 39,000  Level FlightAware ADS-B
01:03PM 44.3339 -70.0718 31° Northeast 507 583 39,000  Level FlightAware ADS-B
01:04PM 44.4107 -70.0063 32° Northeast 508 585 39,000  Level FlightAware ADS-B (CYQI)
01:04PM 44.4899 -69.9384 32° Northeast 508 585 39,000  Level FlightAware ADS-B (CYQI)
01:05PM 44.5631 -69.8754 32° Northeast 508 585 39,000  Level FlightAware ADS-B
01:05PM 44.6212 -69.8254 32° Northeast 509 586 39,000  Level FlightAware ADS-B
01:06PM 44.6579 -69.7937 32° Northeast 507 583 39,000  Level FlightAware ADS-B (KBGR)
01:07PM 44.7600 -69.7051 32° Northeast 503 579 39,000  Level FlightAware ADS-B (KBGR)
01:07PM 44.8251 -69.6485 32° Northeast 500 575 39,000  Level FlightAware ADS-B (KBGR)
01:08PM 44.8824 -69.5985 32° Northeast 500 575 39,000  Level FlightAware ADS-B
01:08PM 44.9483 -69.5410 32° Northeast 500 575 39,000  Level FlightAware ADS-B
01:09PM 45.0090 -69.4877 32° Northeast 500 575 39,000  Level FlightAware ADS-B
01:09PM 45.0729 -69.4317 32° Northeast 499 574 39,000  Level FlightAware ADS-B (KBGR)
01:10PM 45.1463 -69.3670 32° Northeast 499 574 39,000  Level FlightAware ADS-B (CYQI)
01:10PM 45.2058 -69.3145 32° Northeast 500 575 39,000  Level FlightAware ADS-B (CYQI)
01:11PM 45.2872 -69.2422 32° Northeast 500 575 39,000  Level FlightAware ADS-B (KBGR)
01:12PM 45.3539 -69.1831 32° Northeast 501 577 39,000  Level FlightAware ADS-B
01:12PM 45.4239 -69.1206 32° Northeast 500 575 39,000  Level FlightAware ADS-B
01:13PM 45.4826 -69.0683 32° Northeast 500 575 39,000  Level FlightAware ADS-B (KBGR)
01:13PM 45.5690 -68.9906 32° Northeast 498 573 39,000  Level FlightAware ADS-B (KBGR)
01:14PM 45.6336 -68.9325 32° Northeast 498 573 39,000  Level FlightAware ADS-B
01:15PM 45.7113 -68.8624 32° Northeast 497 572 39,000  Level FlightAware ADS-B
01:15PM 45.7730 -68.8066 32° Northeast 497 572 39,000  Level FlightAware ADS-B
01:16PM 45.8451 -68.7412 32° Northeast 496 571 39,000  Level FlightAware ADS-B
01:16PM 45.9105 -68.6816 33° Northeast 497 572 39,000  Level FlightAware ADS-B
01:17PM 45.9647 -68.6321 33° Northeast 497 572 39,000  Level FlightAware ADS-B
01:17PM 46.0193 -68.5822 33° Northeast 496 571 39,000  Level FlightAware ADS-B
01:18PM 46.1011 -68.5072 33° Northeast 496 571 39,000  Level FlightAware ADS-B
01:18PM 46.1578 -68.4549 33° Northeast 494 568 39,000  Level FlightAware ADS-B
01:19PM 46.2266 -68.3914 33° Northeast 494 568 39,000  Level FlightAware ADS-B
01:20PM 46.2861 -68.3364 33° Northeast 494 568 39,000  Level FlightAware ADS-B
01:20PM 46.3537 -68.2737 33° Northeast 494 568 39,000  Level FlightAware ADS-B
01:21PM 46.4117 -68.2197 33° Northeast 494 568 39,000  Level FlightAware ADS-B
01:21PM 46.4868 -68.1496 33° Northeast 494 568 39,000  Level FlightAware ADS-B
01:22PM 46.5366 -68.1030 33° Northeast 493 567 39,000  Level FlightAware ADS-B
01:22PM 46.5833 -68.0500 33° Northeast 490 564 39,000 -120 Level Moncton Center
01:23PM 46.6853 -67.9619 31° Northeast 494 568 38,900  Descending Boston Center
01:24PM 46.8008 -67.8550 32° Northeast 493 567 39,000  Climbing Boston Center
01:25PM 46.9372 -67.7250 33° Northeast 486 559 39,000  Level Boston Center
01:26PM 47.0333 -67.6167 38° Northeast 490 564 39,000  Level Moncton Center
01:27PM 47.1500 -67.5000 34° Northeast 490 564 39,000  Level Moncton Center
01:28PM 47.2811 -67.3914 29° Northeast 494 568 39,000  Level Boston Center
01:29PM 47.3947 -67.2792 34° Northeast 492 566 39,000  Level Boston Center
01:30PM 47.5000 -67.1667 36° Northeast 480 552 39,000  Level Moncton Center
01:32PM 47.7333 -66.9667 30° Northeast 490 564 39,000  Level Moncton Center
01:33PM 47.8333 -66.8500 38° Northeast 480 552 39,000  Level Moncton Center
01:34PM 47.9667 -66.7167 34° Northeast 490 564 39,000  Level Moncton Center
01:35PM 48.0667 -66.6333 29° Northeast 490 564 39,000  Level Moncton Center
01:36PM 48.1833 -66.5000 37° Northeast 480 552 39,000  Level Moncton Center
01:37PM 48.3000 -66.4167 25° Northeast 480 552 39,000  Level Moncton Center
01:38PM 48.4000 -66.2833 41° Northeast 490 564 39,000  Level Moncton Center
01:39PM 48.5167 -66.2000 25° Northeast 500 575 39,000  Level Moncton Center
01:40PM 48.6500 -66.0667 33° Northeast 510 587 39,000  Level Moncton Center
01:41PM 48.7667 -65.9500 33° Northeast 500 575 39,000  Level Moncton Center
01:42PM 48.8833 -65.8167 37° Northeast 510 587 39,000  Level Moncton Center
01:43PM 49.0000 -65.7000 33° Northeast 500 575 39,000  Level Moncton Center
01:44PM 49.1167 -65.5667 37° Northeast 500 575 39,000  Level Moncton Center
01:45PM 49.2333 -65.4667 29° Northeast 500 575 39,000  Level Moncton Center
01:46PM 49.3500 -65.3500 33° Northeast 500 575 39,000  Level Moncton Center
01:47PM 49.4667 -65.2167 37° Northeast 500 575 39,000  Level Moncton Center
01:48PM 49.5833 -65.1167 29° Northeast 500 575 39,000  Level Moncton Center
01:49PM 49.6833 -65.0000 37° Northeast 500 575 39,000  Level Moncton Center
01:50PM 49.8000 -64.8667 36° Northeast 500 575 39,000  Level Moncton Center
01:51PM 49.9333 -64.7333 33° Northeast 500 575 39,000  Level Moncton Center
01:52PM 50.0500 -64.6333 29° Northeast 510 587 39,000  Level Moncton Center
01:53PM 50.1667 -64.5000 36° Northeast 510 587 39,000  Level Moncton Center
01:54PM 50.2833 -64.3667 36° Northeast 510 587 39,000  Level Moncton Center
01:55PM 50.4000 -64.2333 36° Northeast 510 587 39,000  Level Moncton Center
01:56PM 50.5167 -64.1000 36° Northeast 510 587 39,000  Level Moncton Center
01:57PM 50.6333 -63.9667 36° Northeast 510 587 39,000  Level Moncton Center
01:58PM 50.7500 -63.8667 28° Northeast 510 587 39,000  Level Moncton Center
01:59PM 50.8667 -63.7333 36° Northeast 510 587 39,000  Level Moncton Center
02:00PM 50.9833 -63.6000 36° Northeast 510 587 39,000  Level Moncton Center
02:01PM 51.1000 -63.4667 36° Northeast 520 598 39,000  Level Moncton Center
02:02PM 51.2167 -63.3333 36° Northeast 510 587 39,000  Level Moncton Center
02:03PM 51.3333 -63.2167 32° Northeast 520 598 39,000  Level Moncton Center
02:04PM 51.4500 -63.0833 35° Northeast 510 587 39,000  Level Moncton Center
02:05PM 51.5500 -62.9500 40° Northeast 510 587 39,000  Level Moncton Center
02:06PM 51.6667 -62.8000 39° Northeast 510 587 39,000  Level Moncton Center
02:07PM 51.8000 -62.6667 32° Northeast 510 587 39,000  Level Moncton Center
02:08PM 51.9000 -62.5333 39° Northeast 510 587 39,000  Level Moncton Center
02:09PM 52.0167 -62.4167 32° Northeast 500 575 39,000  Level Moncton Center
02:11PM 52.1500 -62.2667 35° Northeast 500 575 39,000  Level Gander Center
02:12PM 52.2500 -62.1333 39° Northeast 500 575 39,000  Level Gander Center
02:12PM 52.3667 -61.9833 38° Northeast 510 587 39,000  Level Moncton Center
02:13PM 52.4833 -61.8667 31° Northeast 510 587 39,000  Level Moncton Center
02:14PM 52.5833 -61.7333 39° Northeast 510 587 39,000  Level Moncton Center
02:15PM 52.7000 -61.5833 38° Northeast 510 587 39,000  Level Moncton Center
02:17PM 52.8333 -61.4167 37° Northeast 520 598 39,000  Level Gander Center
02:18PM 52.9500 -61.2500 41° Northeast 520 598 39,000  Level Gander Center
02:19PM 53.0500 -61.0833 45° Northeast 520 598 39,000  Level Gander Center
02:20PM 53.1667 -60.9167 41° Northeast 530 610 39,000  Level Gander Center
02:21PM 53.2667 -60.7500 45° Northeast 520 598 39,000  Level Gander Center
02:22PM 53.3833 -60.5833 40° Northeast 530 610 39,000  Level Gander Center
02:23PM 53.4833 -60.4167 45° Northeast 530 610 39,000  Level Gander Center
02:24PM 53.5833 -60.2667 42° Northeast 520 598 39,000  Level Gander Center
02:25PM 53.6833 -60.1000 45° Northeast 520 598 39,000  Level Gander Center
02:26PM 53.7833 -59.9167 47° Northeast 530 610 39,000  Level Gander Center
02:27PM 53.9000 -59.7500 40° Northeast 530 610 39,000  Level Gander Center
02:28PM 54.0167 -59.5833 40° Northeast 530 610 39,000  Level Gander Center
02:29PM 54.1167 -59.4000 47° Northeast 530 610 39,000  Level Gander Center
02:30PM 54.2333 -59.2167 43° Northeast 530 610 39,000  Level Gander Center
02:31PM 54.3333 -59.0500 44° Northeast 530 610 39,000  Level Gander Center
02:31PM 54.4000 -58.9167 49° Northeast 530 610 39,000  Level Moncton Center
02:32PM 54.5333 -58.7167 41° Northeast 530 610 39,000  Level Moncton Center
02:33PM 54.6167 -58.5333 52° Northeast 530 610 39,000  Level Moncton Center
02:34PM 54.7333 -58.3500 42° Northeast 530 610 39,000  Level Moncton Center
02:35PM 54.8333 -58.1833 44° Northeast 530 610 39,000  Level Moncton Center
02:36PM 54.9500 -58.0000 42° Northeast 530 610 39,000  Level Moncton Center
02:37PM 55.0333 -57.8000 54° Northeast 530 610 39,000  Level Moncton Center
02:38PM 55.1500 -57.6167 42° Northeast 530 610 39,000  Level Moncton Center
02:39PM 55.2500 -57.4500 43° Northeast 530 610 39,000  Level Moncton Center
02:41PM 55.3667 -57.2167 49° Northeast 530 610 39,000  Level Gander Center
02:42PM 55.4833 -57.0333 42° Northeast 530 610 39,000  Level Gander Center
02:43PM 55.5500 -56.8167 61° Northeast 530 610 39,000  Level Gander Center
02:44PM 55.6167 -56.5833 63° Northeast 540 621 39,000  Level Gander Center
02:45PM 55.6667 -56.3333 70° East 550 633 39,000  Level Gander Center
02:46PM 55.7333 -56.0667 66° East 550 633 39,000  Level Gander Center
02:47PM 55.7833 -55.8500 68° East 550 633 39,000  Level Gander Center
02:48PM 55.8500 -55.6000 65° Northeast 550 633 39,000  Level Gander Center
02:49PM 55.9167 -55.3167 67° East 550 633 39,000  Level Gander Center
02:50PM 55.9667 -55.0667 70° East 550 633 39,000  Level Gander Center
02:51PM 56.0167 -54.8500 67° East 550 633 39,000  Level Gander Center
02:52PM 56.0833 -54.6000 64° Northeast 550 633 39,000  Level Gander Center
02:53PM 56.1333 -54.3500 70° East 550 633 39,000  Level Gander Center
02:54PM 56.1833 -54.0667 72° East 550 633 39,000  Level Gander Center
02:55PM 56.2333 -53.8500 67° East 540 621 39,000  Level Gander Center
02:56PM 56.3167 -53.4500 69° East 460 529 39,000  Level Gander Center
02:57PM 56.3833 -53.1833 66° East 530 610 39,000  Level Gander Center
02:58PM 56.4333 -52.9333 70° East 550 633 39,000  Level Gander Center
02:59PM 56.4667 -52.6500 78° East 550 633 39,000  Level Gander Center
03:00PM 56.5333 -52.4333 61° Northeast 540 621 39,000  Level Gander Center
03:01PM 56.5833 -52.1500 72° East 540 621 39,000  Level Gander Center
03:02PM 56.6333 -51.9167 69° East 540 621 39,000  Level Gander Center
03:05PM 56.7250 -51.4551 70° East  Level FlightAware Approximate
03:12PM 57.0383 -49.7306 75° East  Level FlightAware Approximate
03:13PM 57.0736 -49.4779 75° East  Level FlightAware Approximate
03:14PM 57.1084 -49.2247 76° East  Level FlightAware Approximate
03:15PM 57.1426 -48.9710 76° East  Level FlightAware Approximate
03:16PM 57.1764 -48.7169 76° East  Level FlightAware Approximate
03:17PM 57.2096 -48.4623 76° East  Level FlightAware Approximate
03:18PM 57.2424 -48.2072 77° East  Level FlightAware Approximate
03:19PM 57.2746 -47.9517 77° East  Level FlightAware Approximate
03:20PM 57.3063 -47.6958 77° East  Level FlightAware Approximate
03:21PM 57.3375 -47.4394 77° East  Level FlightAware Approximate
03:22PM 57.3681 -47.1826 77° East  Level FlightAware Approximate
03:23PM 57.3983 -46.9253 78° East  Level FlightAware Approximate
03:24PM 57.4279 -46.6676 78° East  Level FlightAware Approximate
03:25PM 57.4570 -46.4096 78° East  Level FlightAware Approximate
03:26PM 57.4855 -46.1511 78° East  Level FlightAware Approximate
03:27PM 57.5135 -45.8922 79° East  Level FlightAware Approximate
03:28PM 57.5410 -45.6329 79° East  Level FlightAware Approximate
03:29PM 57.5680 -45.3733 79° East  Level FlightAware Approximate
03:30PM 57.5944 -45.1132 79° East  Level FlightAware Approximate
03:31PM 57.6203 -44.8528 79° East  Level FlightAware Approximate
03:32PM 57.6457 -44.5920 80° East  Level FlightAware Approximate
03:33PM 57.6705 -44.3309 80° East  Level FlightAware Approximate
03:34PM 57.6948 -44.0694 80° East  Level FlightAware Approximate
03:35PM 57.7185 -43.8075 80° East  Level FlightAware Approximate
03:36PM 57.7417 -43.5453 80° East  Level FlightAware Approximate
03:37PM 57.7644 -43.2828 81° East  Level FlightAware Approximate
03:38PM 57.7865 -43.0200 81° East  Level FlightAware Approximate
03:39PM 57.8080 -42.7568 81° East  Level FlightAware Approximate
03:40PM 57.8291 -42.4933 81° East  Level FlightAware Approximate
03:41PM 57.8495 -42.2295 82° East  Level FlightAware Approximate
03:42PM 57.8695 -41.9655 82° East  Level FlightAware Approximate
03:43PM 57.8889 -41.7011 82° East  Level FlightAware Approximate
03:44PM 57.9077 -41.4364 82° East  Level FlightAware Approximate
03:45PM 57.9260 -41.1715 82° East  Level FlightAware Approximate
03:46PM 57.9437 -40.9063 83° East  Level FlightAware Approximate
03:47PM 57.9609 -40.6409 83° East  Level FlightAware Approximate
03:48PM 57.9775 -40.3752 83° East  Level FlightAware Approximate
03:49PM 57.9936 -40.1093 83° East  Level FlightAware Approximate
03:50PM 58.0061 -39.8426 86° East  Level FlightAware Approximate
03:51PM 58.0160 -39.5754 86° East  Level FlightAware Approximate
03:52PM 58.0253 -39.3080 86° East  Level FlightAware Approximate
03:53PM 58.0341 -39.0406 86° East  Level FlightAware Approximate
03:54PM 58.0423 -38.7730 87° East  Level FlightAware Approximate
03:55PM 58.0499 -38.5052 87° East  Level FlightAware Approximate
03:56PM 58.0570 -38.2374 87° East  Level FlightAware Approximate
03:57PM 58.0635 -37.9695 87° East  Level FlightAware Approximate
03:58PM 58.0695 -37.7015 87° East  Level FlightAware Approximate
03:59PM 58.0749 -37.4333 88° East  Level FlightAware Approximate
04:00PM 58.0797 -37.1651 88° East  Level FlightAware Approximate
04:01PM 58.0840 -36.8969 88° East  Level FlightAware Approximate
04:02PM 58.0877 -36.6286 88° East  Level FlightAware Approximate
04:03PM 58.0908 -36.3602 89° East  Level FlightAware Approximate
04:04PM 58.0934 -36.0918 89° East  Level FlightAware Approximate
04:05PM 58.0954 -35.8233 89° East  Level FlightAware Approximate
04:06PM 58.0969 -35.5549 89° East  Level FlightAware Approximate
04:07PM 58.0978 -35.2864 90° East  Level FlightAware Approximate
04:08PM 58.0981 -35.0179 90° East  Level FlightAware Approximate
04:09PM 58.0978 -34.7494 90° East  Level FlightAware Approximate
04:10PM 58.0970 -34.4809 90° East  Level FlightAware Approximate
04:11PM 58.0957 -34.2124 90° East  Level FlightAware Approximate
04:12PM 58.0937 -33.9440 91° East  Level FlightAware Approximate
04:13PM 58.0912 -33.6755 91° East  Level FlightAware Approximate
04:14PM 58.0882 -33.4072 91° East  Level FlightAware Approximate
04:15PM 58.0845 -33.1388 91° East  Level FlightAware Approximate
04:16PM 58.0803 -32.8706 92° East  Level FlightAware Approximate
04:17PM 58.0756 -32.6024 92° East  Level FlightAware Approximate
04:18PM 58.0703 -32.3342 92° East  Level FlightAware Approximate
04:19PM 58.0644 -32.0662 92° East  Level FlightAware Approximate
04:20PM 58.0579 -31.7983 92° East  Level FlightAware Approximate
04:21PM 58.0509 -31.5304 93° East  Level FlightAware Approximate
04:22PM 58.0433 -31.2627 93° East  Level FlightAware Approximate
04:23PM 58.0352 -30.9951 93° East  Level FlightAware Approximate
04:24PM 58.0265 -30.7276 93° East  Level FlightAware Approximate
04:25PM 58.0173 -30.4602 94° East  Level FlightAware Approximate
04:26PM 58.0074 -30.1930 94° East  Level FlightAware Approximate
04:27PM 58.0029 -29.9259 86° East  Level FlightAware Approximate
04:28PM 58.0130 -29.6588 86° East  Level FlightAware Approximate
04:29PM 58.0225 -29.3915 86° East  Level FlightAware Approximate
04:30PM 58.0314 -29.1240 86° East  Level FlightAware Approximate
04:31PM 58.0398 -28.8564 86° East  Level FlightAware Approximate
04:32PM 58.0476 -28.5888 87° East  Level FlightAware Approximate
04:33PM 58.0549 -28.3210 87° East  Level FlightAware Approximate
04:34PM 58.0616 -28.0531 87° East  Level FlightAware Approximate
04:35PM 58.0677 -27.7851 87° East  Level FlightAware Approximate
04:36PM 58.0733 -27.5170 88° East  Level FlightAware Approximate
04:37PM 58.0783 -27.2488 88° East  Level FlightAware Approximate
04:38PM 58.0827 -26.9806 88° East  Level FlightAware Approximate
04:39PM 58.0866 -26.7123 88° East  Level FlightAware Approximate
04:40PM 58.0899 -26.4439 89° East  Level FlightAware Approximate
04:41PM 58.0927 -26.1755 89° East  Level FlightAware Approximate
04:42PM 58.0949 -25.9071 89° East  Level FlightAware Approximate
04:43PM 58.0965 -25.6386 89° East  Level FlightAware Approximate
04:44PM 58.0975 -25.3701 89° East  Level FlightAware Approximate
04:45PM 58.0980 -25.1016 90° East  Level FlightAware Approximate
04:46PM 58.0980 -24.8331 90° East  Level FlightAware Approximate
04:47PM 58.0973 -24.5646 90° East  Level FlightAware Approximate
04:48PM 58.0961 -24.2962 90° East  Level FlightAware Approximate
04:49PM 58.0944 -24.0277 91° East  Level FlightAware Approximate
04:50PM 58.0921 -23.7593 91° East  Level FlightAware Approximate
04:51PM 58.0892 -23.4909 91° East  Level FlightAware Approximate
04:52PM 58.0857 -23.2225 91° East  Level FlightAware Approximate
04:53PM 58.0817 -22.9542 92° East  Level FlightAware Approximate
04:54PM 58.0771 -22.6860 92° East  Level FlightAware Approximate
04:55PM 58.0720 -22.4179 92° East  Level FlightAware Approximate
04:56PM 58.0663 -22.1498 92° East  Level FlightAware Approximate
04:57PM 58.0600 -21.8818 92° East  Level FlightAware Approximate
04:58PM 58.0532 -21.6139 93° East  Level FlightAware Approximate
04:59PM 58.0458 -21.3462 93° East  Level FlightAware Approximate
05:00PM 58.0378 -21.0785 93° East  Level FlightAware Approximate
05:01PM 58.0293 -20.8110 93° East  Level FlightAware Approximate
05:02PM 58.0202 -20.5436 94° East  Level FlightAware Approximate
05:03PM 58.0106 -20.2763 94° East  Level FlightAware Approximate
05:04PM 58.0004 -20.0092 94° East  Level FlightAware Approximate
05:05PM 57.9844 -19.7432 96° East  Level FlightAware Approximate
05:06PM 57.9678 -19.4775 97° East  Level FlightAware Approximate
05:07PM 57.9505 -19.2120 97° East  Level FlightAware Approximate
05:08PM 57.9328 -18.9468 97° East  Level FlightAware Approximate
05:09PM 57.9144 -18.6818 97° East  Level FlightAware Approximate
05:10PM 57.8955 -18.4171 98° East  Level FlightAware Approximate
05:11PM 57.8761 -18.1527 98° East  Level FlightAware Approximate
05:12PM 57.8561 -17.8886 98° East  Level FlightAware Approximate
05:13PM 57.8356 -17.6248 98° East  Level FlightAware Approximate
05:14PM 57.8145 -17.3613 98° East  Level FlightAware Approximate
05:15PM 57.7929 -17.0981 99° East  Level FlightAware Approximate
05:16PM 57.7707 -16.8352 99° East  Level FlightAware Approximate
05:17PM 57.7480 -16.5726 99° East  Level FlightAware Approximate
05:18PM 57.7248 -16.3104 99° East  Level FlightAware Approximate
05:19PM 57.7010 -16.0485 100° East  Level FlightAware Approximate
05:20PM 57.6767 -15.7870 100° East  Level FlightAware Approximate
05:21PM 57.6518 -15.5258 100° East  Level FlightAware Approximate
05:22PM 57.6264 -15.2650 100° East  Level FlightAware Approximate
05:23PM 57.6004 -15.0046 100° East  Level FlightAware Approximate
05:24PM 57.5740 -14.7445 101° East  Level FlightAware Approximate
05:25PM 57.5470 -14.4848 101° East  Level FlightAware Approximate
05:26PM 57.5194 -14.2255 101° East  Level FlightAware Approximate
05:27PM 57.4911 -13.9667 101° East  Level FlightAware Approximate
05:28PM 57.4622 -13.7083 102° East  Level FlightAware Approximate
05:29PM 57.4328 -13.4503 102° East  Level FlightAware Approximate
05:30PM 57.4029 -13.1928 102° East  Level FlightAware Approximate
05:31PM 57.3724 -12.9356 102° East  Level FlightAware Approximate
05:32PM 57.3414 -12.6789 103° East  Level FlightAware Approximate
05:33PM 57.3099 -12.4226 103° East  Level FlightAware Approximate
05:34PM 57.2779 -12.1668 103° East  Level FlightAware Approximate
05:35PM 57.2454 -11.9114 103° East  Level FlightAware Approximate
05:36PM 57.2123 -11.6565 103° East  Level FlightAware Approximate
05:36PM 56.9723 -9.8125 105° East 525 604 39,600  Level FlightAware ADS-B (EGAE / LDY)
05:37PM 57.1787 -11.4020 104° East  Level FlightAware Approximate
05:37PM 56.8949 -9.3813 110° East 521 600 40,900  Level FlightAware ADS-B (EGAE / LDY)
05:38PM 56.8604 -9.2071 110° East 521 600 41,000 60 Climbing FlightAware ADS-B (EGAE / LDY)
05:39PM 56.8280 -9.0449 110° East 520 598 41,000  Level FlightAware ADS-B (EGAE / LDY)
05:39PM 56.8001 -8.9060 110° East 521 600 41,000  Level FlightAware ADS-B (EGAE / LDY)
05:40PM 56.7659 -8.7368 110° East 521 600 41,000  Level FlightAware ADS-B (EGAE / LDY)
05:40PM 56.7387 -8.6038 110° East 519 597 41,000  Level FlightAware ADS-B (EGAE / LDY)
05:41PM 56.7046 -8.4383 110° East 518 596 41,000  Level FlightAware ADS-B (EGAE / LDY)
05:42PM 56.6709 -8.2756 110° East 519 597 41,000  Level FlightAware ADS-B (EGAE / LDY)
05:42PM 56.6423 -8.1394 110° East 519 597 41,000  Level FlightAware ADS-B (EGAE / LDY)
05:43PM 56.6082 -7.9771 110° East 520 598 41,000  Level FlightAware ADS-B (EGAE / LDY)
05:44PM 56.5852 -7.8688 111° Southeast 522 601 41,000  Level FlightAware ADS-B (EGPH / EDI)
05:44PM 56.5632 -7.7654 110° East 520 598 41,000  Level FlightAware ADS-B
05:44PM 56.5345 -7.6322 110° East 519 597 41,000  Level FlightAware ADS-B (EGAE / LDY)
05:45PM 56.5117 -7.5261 111° Southeast 520 598 41,000  Level FlightAware ADS-B (EGPH / EDI)
05:46PM 56.4846 -7.4010 111° Southeast 520 598 41,000  Level FlightAware ADS-B (EGPH / EDI)
05:46PM 56.4356 -7.1772 112° Southeast 520 598 41,000  Level FlightAware ADS-B
05:47PM 56.4049 -7.0383 112° Southeast 519 597 41,000  Level FlightAware ADS-B (EGPH / EDI)
05:47PM 56.3753 -6.9047 112° Southeast 517 595 41,000  Level FlightAware ADS-B (EGAE / LDY)
05:48PM 56.3441 -6.7655 112° Southeast 516 594 41,000  Level FlightAware ADS-B
05:49PM 56.3159 -6.6399 112° Southeast 517 595 41,000  Level FlightAware ADS-B (EGPH / EDI)
05:49PM 56.2790 -6.4770 112° Southeast 518 596 41,000  Level FlightAware ADS-B
05:50PM 56.2511 -6.3549 112° Southeast 518 596 41,000  Level FlightAware ADS-B (EGPH / EDI)
05:50PM 56.2204 -6.2209 112° Southeast 517 595 41,000  Level FlightAware ADS-B
05:51PM 56.1931 -6.1024 113° Southeast 516 594 41,000  Level FlightAware ADS-B
05:51PM 56.1626 -5.9712 113° Southeast 515 593 41,000  Level FlightAware ADS-B (EGPH / EDI)
05:52PM 56.1333 -5.8460 113° Southeast 512 589 41,000  Level FlightAware ADS-B
05:53PM 56.1020 -5.7123 113° Southeast 506 582 41,000  Level FlightAware ADS-B (EGAA / BFS)
05:53PM 56.0736 -5.5925 113° Southeast 506 582 41,000  Level FlightAware ADS-B
05:54PM 56.0469 -5.4804 112° Southeast 504 580 41,000  Level FlightAware ADS-B (EGAE / LDY)
05:54PM 56.0295 -5.4074 112° Southeast 504 580 41,000  Level FlightAware ADS-B (EGAE / LDY)
05:54PM 56.0050 -5.3046 112° Southeast 503 579 41,000  Level FlightAware ADS-B (EGAE / LDY)
05:55PM 55.9866 -5.2283 112° Southeast 501 577 41,000  Level FlightAware ADS-B (EGAE / LDY)
05:55PM 55.9549 -5.0971 112° Southeast 504 580 41,000  Level FlightAware UK
05:55PM 55.9533 -5.0908 113° Southeast 503 579 41,000  Level FlightAware ADS-B (EGPG)
05:56PM 55.9171 -4.9419 114° Southeast 504 580 41,000  Level FlightAware ADS-B (EGPG)
05:56PM 55.9119 -4.9207 114° Southeast 504 580 41,000  Level FlightAware ADS-B (EGAE / LDY)
05:57PM 55.8786 -4.7851 114° Southeast 504 580 41,000  Level FlightAware ADS-B (EGPH / EDI)
05:57PM 55.8432 -4.6423 114° Southeast 504 580 41,000  Level FlightAware UK
05:57PM 55.8433 -4.6422 114° Southeast 504 580 41,000  Level FlightAware ADS-B (EGPG)
05:58PM 55.8225 -4.5584 113° Southeast 500 575 41,000  Level FlightAware ADS-B (EGPK / PIK)
05:58PM 55.7905 -4.4296 113° Southeast 500 575 41,000  Level FlightAware ADS-B (EGAE / LDY)
05:59PM 55.7585 -4.3027 113° Southeast 502 578 41,000  Level FlightAware UK
05:59PM 55.7580 -4.3004 114° Southeast 503 579 41,000  Level FlightAware ADS-B (EGPH / EDI)
05:59PM 55.7295 -4.1870 114° Southeast 503 579 41,000  Level FlightAware ADS-B (EGPG)
06:00PM 55.6998 -4.0701 114° Southeast 503 579 41,000  Level FlightAware ADS-B (EGPH / EDI)
06:00PM 55.6820 -4.0005 113° Southeast 499 574 41,000  Level FlightAware ADS-B (EGPD / ABZ)
06:01PM 55.6536 -3.8892 114° Southeast 503 579 41,000  Level FlightAware ADS-B (EGPG)
06:01PM 55.6271 -3.7862 114° Southeast 503 579 41,000  Level FlightAware ADS-B (EGPG)
06:02PM 55.5972 -3.6699 115° Southeast 503 579 41,000  Level FlightAware ADS-B (EGPG)
06:02PM 55.5656 -3.5482 115° Southeast 505 581 41,000  Level FlightAware ADS-B (EGPG)
06:03PM 55.5367 -3.4376 115° Southeast 507 583 41,000  Level FlightAware ADS-B (EGPG)
06:03PM 55.5070 -3.3241 115° Southeast 506 582 41,000  Level FlightAware ADS-B (EGPG)
06:04PM 55.4707 -3.1863 115° Southeast 506 582 41,000  Level FlightAware ADS-B (EGNT / NCL)
06:04PM 55.4425 -3.0800 115° Southeast 506 582 41,000  Level FlightAware ADS-B (EGPG)
06:05PM 55.4259 -3.0174 115° Southeast 506 582 41,000  Level FlightAware ADS-B (EGNT / NCL)
06:05PM 55.3945 -2.9001 114° Southeast 503 579 41,000  Level FlightAware ADS-B
06:05PM 55.3634 -2.7843 115° Southeast 506 582 41,000  Level FlightAware ADS-B
06:06PM 55.3337 -2.6740 115° Southeast 501 577 41,000  Level FlightAware ADS-B
06:06PM 55.3031 -2.5612 115° Southeast 501 577 41,000  Level FlightAware ADS-B
06:07PM 55.2724 -2.4484 115° Southeast 502 578 41,000  Level FlightAware ADS-B
06:07PM 55.2500 -2.3669 115° Southeast 501 577 41,000  Level FlightAware ADS-B (EGNR / CEG)
06:07PM 55.2462 -2.3528 115° Southeast 500 575 41,000  Level FlightAware ADS-B (EGPD / ABZ)
06:08PM 55.2144 -2.2372 116° Southeast 503 579 41,000  Level FlightAware ADS-B (EGNT / NCL)
06:08PM 55.1969 -2.1736 115° Southeast 499 574 41,000  Level FlightAware ADS-B
06:08PM 55.1815 -2.1181 115° Southeast 499 574 41,000  Level FlightAware ADS-B
06:09PM 55.1642 -2.0554 115° Southeast 498 573 41,000  Level FlightAware ADS-B
06:09PM 55.1429 -1.9792 115° Southeast 497 572 41,000  Level FlightAware ADS-B
06:10PM 55.1120 -1.8686 116° Southeast 499 574 41,000  Level FlightAware ADS-B
06:10PM 55.1019 -1.8326 115° Southeast 495 570 41,000  Level FlightAware ADS-B
06:10PM 55.0954 -1.8096 115° Southeast 495 570 41,000  Level FlightAware ADS-B (EGNR / CEG)
06:10PM 55.0815 -1.7599 115° Southeast 494 568 41,000  Level FlightAware ADS-B (LICP)
06:10PM 55.0730 -1.7298 115° Southeast 494 568 41,000  Level FlightAware ADS-B (EGNR / CEG)
06:10PM 55.0698 -1.7183 115° Southeast 494 568 41,000  Level FlightAware ADS-B
06:11PM 55.0400 -1.6130 115° Southeast 494 568 41,000  Level FlightAware ADS-B (LICP)
06:11PM 55.0286 -1.5729 115° Southeast 494 568 41,000  Level FlightAware ADS-B
06:12PM 55.0097 -1.5063 116° Southeast 496 571 41,000  Level FlightAware ADS-B (EGAA / BFS)
06:12PM 54.9810 -1.4058 117° Southeast 495 570 41,000  Level FlightAware ADS-B (EGNT / NCL)
06:13PM 54.9371 -1.2528 117° Southeast 492 566 41,000  Level FlightAware ADS-B (EGNT / NCL)
06:13PM 54.9214 -1.1979 116° Southeast 490 564 41,000  Level FlightAware ADS-B (EGLF / FAB)
06:13PM 54.8878 -1.0821 116° Southeast 484 557 41,000  Level FlightAware ADS-B
06:14PM 54.8400 -0.9179 116° Southeast 486 559 41,000  Level FlightAware UK
06:14PM 54.8359 -0.9035 117° Southeast 487 560 41,000  Level FlightAware ADS-B (EGNT / NCL)
06:14PM 54.8259 -0.8695 116° Southeast 484 557 41,000  Level FlightAware ADS-B (EGNR / CEG)
06:15PM 54.8142 -0.8291 116° Southeast 484 557 41,000  Level FlightAware ADS-B
06:15PM 54.8066 -0.8035 116° Southeast 484 557 41,000  Level FlightAware ADS-B (EGNR / CEG)
06:15PM 54.7946 -0.7625 116° Southeast 484 557 41,000  Level FlightAware ADS-B (EGXU / HRT)
06:15PM 54.7906 -0.7487 116° Southeast 484 557 41,000  Level FlightAware ADS-B (LICP)
06:15PM 54.7629 -0.6548 116° Southeast 482 555 41,000  Level FlightAware ADS-B (EGNR / CEG)
06:16PM 54.7446 -0.5927 116° Southeast 483 556 41,000  Level FlightAware ADS-B (EGNR / CEG)
06:16PM 54.7407 -0.5795 116° Southeast 483 556 41,000  Level FlightAware ADS-B
06:16PM 54.7228 -0.5189 117° Southeast 486 559 41,000  Level FlightAware ADS-B (EGPH / EDI)
06:17PM 54.6962 -0.4298 117° Southeast 489 563 41,000  Level FlightAware ADS-B
06:17PM 54.6496 -0.2744 117° Southeast 488 562 41,000  Level FlightAware UK
06:18PM 54.6291 -0.2058 117° Southeast 489 563 41,000  Level FlightAware ADS-B (EGCD)
06:18PM 54.6123 -0.1499 118° Southeast 489 563 41,000  Level FlightAware ADS-B (EGNR / CEG)
06:18PM 54.5791 -0.0399 117° Southeast 491 565 41,000  Level FlightAware ADS-B (EGNT / NCL)
06:18PM 54.5741 -0.0234 117° Southeast 491 565 41,000  Level FlightAware ADS-B (LICP)
06:19PM 54.5370 0.0985 118° Southeast 488 562 41,000  Level FlightAware ADS-B (EGNT / NCL)
06:20PM 54.5101 0.1867 118° Southeast 486 559 41,000  Level FlightAware ADS-B (EGNT / NCL)
06:20PM 54.4740 0.3046 118° Southeast 486 559 41,000  Level FlightAware ADS-B (EGNT / NCL)
06:21PM 54.4391 0.4181 118° Southeast 485 558 41,000  Level FlightAware ADS-B (EGLF / FAB)
06:21PM 54.4061 0.5248 118° Southeast 488 562 41,000  Level FlightAware ADS-B (EGLF / FAB)
06:22PM 54.3682 0.6459 118° Southeast 482 555 41,000  Level FlightAware ADS-B (EGNT / NCL)
06:22PM 54.3267 0.7792 118° Southeast 480 552 41,000  Level FlightAware ADS-B (EGNT / NCL)
06:23PM 54.2906 0.8939 118° Southeast 480 552 41,000  Level FlightAware UK
06:23PM 54.2901 0.8958 118° Southeast 479 551 41,000  Level FlightAware ADS-B (EGNT / NCL)
06:24PM 54.2481 1.0287 118° Southeast 480 552 41,000  Level FlightAware ADS-B (EGLF / FAB)
06:24PM 54.2414 1.0499 118° Southeast 480 552 41,000  Level FlightAware ADS-B (EGXU / HRT)
06:24PM 54.2059 1.1616 118° Southeast 480 552 41,000  Level FlightAware ADS-B (EGLF / FAB)
06:25PM 54.1748 1.2591 119° Southeast 481 554 41,000  Level FlightAware ADS-B (EGLF / FAB)
06:25PM 54.1599 1.3056 118° Southeast 477 549 41,000  Level FlightAware ADS-B (EGSR)
06:26PM 54.1257 1.4116 118° Southeast 482 555 41,000  Level FlightAware UK
06:26PM 54.1209 1.4269 119° Southeast 482 555 41,000  Level FlightAware ADS-B (EGLF / FAB)
06:26PM 54.0897 1.5237 119° Southeast 482 555 41,000  Level FlightAware ADS-B (EGLF / FAB)
06:26PM 54.0833 1.5436 118° Southeast 478 550 41,000  Level FlightAware ADS-B
06:27PM 54.0410 1.6738 118° Southeast 481 554 41,000  Level FlightAware ADS-B
06:27PM 54.0187 1.7423 118° Southeast 481 554 41,000  Level FlightAware ADS-B
06:28PM 53.9699 1.8915 119° Southeast 485 558 41,000  Level FlightAware ADS-B (EGLF / FAB)
06:28PM 53.9474 1.9596 118° Southeast 481 554 41,000  Level FlightAware ADS-B
06:29PM 53.9076 2.0802 119° Southeast 486 559 41,000  Level FlightAware ADS-B (EGLF / FAB)
06:29PM 53.8941 2.1212 118° Southeast 481 554 41,000  Level FlightAware ADS-B
06:30PM 53.8580 2.2296 118° Southeast 486 559 41,000  Level FlightAware UK
06:30PM 53.8387 2.2878 119° Southeast 486 559 41,000  Level FlightAware ADS-B (EGLF / FAB)
06:30PM 53.8045 2.3899 120° Southeast 485 558 41,000  Level FlightAware ADS-B
06:31PM 53.7661 2.5043 120° Southeast 486 559 41,000  Level FlightAware ADS-B (EGLF / FAB)
06:32PM 53.7580 2.5286 120° Southeast 486 559 41,000  Level FlightAware ADS-B
06:32PM 53.6920 2.7228 120° Southeast 488 562 41,000  Level FlightAware UK
06:32PM 53.6860 2.7363 120° Southeast 486 559 41,000  Level FlightAware ADS-B
06:32PM 53.6655 2.7856 127° Southeast 491 565 41,000  Level FlightAware ADS-B
06:33PM 53.6570 2.8044 129° Southeast 488 562 41,000  Level FlightAware ADS-B (KAUN)
06:33PM 53.6076 2.9045 129° Southeast 494 568 41,000  Level FlightAware UK
06:33PM 53.5959 2.9291 130° Southeast 493 567 41,000  Level FlightAware ADS-B
06:34PM 53.5599 3.0021 130° Southeast 494 568 41,000  Level FlightAware ADS-B (EGLC / LCY)
06:34PM 53.5340 3.0545 129° Southeast 489 563 41,000  Level FlightAware ADS-B (KAUN)
06:34PM 53.5197 3.0833 129° Southeast 489 563 41,000  Level FlightAware ADS-B (KAUN)
06:35PM 53.4768 3.1699 129° Southeast 494 568 41,000  Level FlightAware UK
06:35PM 53.4745 3.1746 130° Southeast 494 568 41,000  Level FlightAware ADS-B
06:35PM 53.4602 3.2032 129° Southeast 488 562 41,000  Level FlightAware ADS-B (KAUN)
06:35PM 53.4477 3.2283 129° Southeast 486 559 41,000  Level FlightAware ADS-B (KAUN)
06:35PM 53.4284 3.2666 129° Southeast 486 559 41,000  Level FlightAware ADS-B (KAUN)
06:36PM 53.3844 3.3545 130° Southeast 491 565 41,000  Level FlightAware ADS-B
06:36PM 53.3409 3.4412 129° Southeast 488 562 41,000  Level FlightAware ADS-B (KAUN)
06:37PM 53.2966 3.5292 129° Southeast 489 563 41,000  Level FlightAware ADS-B (KAUN)
06:37PM 53.2511 3.6190 130° Southeast 497 572 41,000  Level FlightAware ADS-B
06:38PM 53.2027 3.7144 130° Southeast 500 575 41,000  Level FlightAware ADS-B (EHRD / RTM)
06:38PM 53.1503 3.8169 130° Southeast 500 575 41,000  Level FlightAware ADS-B
06:39PM 53.1249 3.8666 130° Southeast 501 577 41,000  Level FlightAware ADS-B
06:39PM 53.0577 3.9976 131° Southeast 502 578 41,000  Level FlightAware ADS-B (EHRD / RTM)
06:40PM 53.0072 4.0958 131° Southeast 501 577 41,000  Level FlightAware ADS-B (EGLF / FAB)
06:40PM 52.9734 4.1610 131° Southeast 501 577 41,000  Level FlightAware ADS-B (EHRD / RTM)
06:41PM 52.9181 4.2678 131° Southeast 501 577 41,000  Level FlightAware ADS-B (EGLF / FAB)
06:41PM 52.9093 4.2847 130° Southeast 496 571 41,000  Level FlightAware ADS-B (EGSR)
06:42PM 52.8630 4.3736 130° Southeast 499 574 41,000  Level FlightAware ADS-B (KAUN)
06:42PM 52.8116 4.4717 131° Southeast 504 580 41,000  Level FlightAware ADS-B (EGLF / FAB)
06:42PM 52.8116 4.4717 131° Southeast 503 579 41,000  Level FlightAware ADS-B (EGLF / FAB)
06:42PM 52.7909 4.5111 131° Southeast 503 579 41,000  Level FlightAware ADS-B
06:43PM 52.7358 4.6155 131° Southeast 502 578 41,000  Level FlightAware ADS-B (EGLF / FAB)
06:43PM 52.6899 4.7023 131° Southeast 501 577 41,000  Level FlightAware ADS-B
06:44PM 52.6306 4.8145 131° Southeast 498 573 41,000  Level FlightAware ADS-B
06:45PM 52.5938 4.8835 131° Southeast 493 567 41,000  Level FlightAware ADS-B
06:45PM 52.5420 4.9803 131° Southeast 491 565 41,000  Level FlightAware ADS-B
06:46PM 52.4932 5.0712 131° Southeast 491 565 41,000  Level FlightAware ADS-B
06:46PM 52.4531 5.1457 131° Southeast 489 563 41,000  Level FlightAware ADS-B
06:47PM 52.4095 5.2266 131° Southeast 490 564 41,000  Level FlightAware ADS-B
06:47PM 52.3499 5.3368 132° Southeast 490 564 41,000  Level FlightAware ADS-B
06:48PM 52.2971 5.4267 132° Southeast 492 566 41,000  Level FlightAware UK
06:48PM 52.3154 5.4002 132° Southeast 492 566 41,000  Level FlightAware ADS-B
06:48PM 52.2610 5.4997 132° Southeast 494 568 41,000  Level FlightAware ADS-B
06:49PM 52.2243 5.5669 132° Southeast 496 571 41,000  Level FlightAware ADS-B
06:49PM 52.1483 5.7053 132° Southeast 497 572 41,000  Level FlightAware ADS-B
06:50PM 52.0982 5.7961 132° Southeast 496 571 41,000  Level FlightAware ADS-B
06:51PM 52.0481 5.8866 132° Southeast 494 568 41,000  Level FlightAware ADS-B
06:51PM 52.0001 5.9727 132° Southeast 493 567 41,000  Level FlightAware ADS-B
06:52PM 51.9577 6.0487 132° Southeast 493 567 41,000  Level FlightAware ADS-B
06:52PM 51.9256 6.1061 132° Southeast 496 571 41,000  Level FlightAware ADS-B (EDKL)
06:53PM 51.8583 6.2260 132° Southeast 496 571 41,000  Level FlightAware ADS-B (EDKL)
06:53PM 51.8269 6.2818 132° Southeast 496 571 41,000  Level FlightAware ADS-B (EDKL)
06:54PM 51.7574 6.4047 132° Southeast 497 572 41,000  Level FlightAware ADS-B (KAUN)
06:54PM 51.7267 6.4588 132° Southeast 500 575 41,000  Level FlightAware ADS-B
06:55PM 51.6600 6.5760 133° Southeast 502 578 41,000  Level FlightAware ADS-B
06:55PM 51.6246 6.6380 133° Southeast 502 578 41,000  Level FlightAware ADS-B (EHRD / RTM)
06:56PM 51.5695 6.7341 133° Southeast 500 575 41,000  Level FlightAware ADS-B (KAUN)
06:56PM 51.5174 6.8243 133° Southeast 500 575 41,000  Level FlightAware ADS-B
06:57PM 51.4710 6.9047 133° Southeast 500 575 41,000  Level FlightAware ADS-B
06:57PM 51.4278 6.9794 133° Southeast 499 574 41,000  Level FlightAware ADS-B (EDKL)
06:58PM 51.3757 7.0689 133° Southeast 499 574 41,000  Level FlightAware ADS-B
06:58PM 51.3287 7.1496 133° Southeast 499 574 41,000  Level FlightAware ADS-B (EDKL)
06:59PM 51.2811 7.2312 133° Southeast 498 573 41,000  Level FlightAware ADS-B (EDKL)
06:59PM 51.2328 7.3135 133° Southeast 497 572 41,000  Level FlightAware ADS-B (EDKL)
07:00PM 51.1711 7.4181 133° Southeast 495 570 41,000  Level FlightAware ADS-B (EDKL)
07:00PM 51.1268 7.4933 133° Southeast 494 568 41,000  Level FlightAware ADS-B (EDKL)
07:01PM 51.0924 7.5531 130° Southeast 492 566 41,000  Level FlightAware ADS-B (KAUN)
07:01PM 51.0559 7.6290 125° Southeast 489 563 41,000  Level FlightAware ADS-B (EDKL)
07:01PM 51.0394 7.6691 123° Southeast 487 560 41,000  Level FlightAware ADS-B (KAUN)
07:02PM 51.0047 7.7564 122° Southeast 487 560 41,000  Level FlightAware ADS-B (EDKL)
07:02PM 50.9956 7.7793 123° Southeast 486 559 41,000  Level FlightAware ADS-B (EDKL)
07:03PM 50.9956 7.7793 123° Southeast 483 556 41,000  Level FlightAware ADS-B (EDKL)
07:04PM 50.8915 8.0380 123° Southeast 480 552 41,000  Level FlightAware ADS-B (EDKL)
07:04PM 50.8311 8.1869 123° Southeast 478 550 41,000  Level FlightAware ADS-B
07:05PM 50.7958 8.2735 123° Southeast 477 549 41,000  Level FlightAware ADS-B
07:05PM 50.7646 8.3500 123° Southeast 477 549 41,000  Level FlightAware ADS-B
07:06PM 50.7236 8.4502 123° Southeast 477 549 41,000  Level FlightAware ADS-B (EDKL)
07:07PM 50.6839 8.5465 123° Southeast 474 545 41,000  Level FlightAware ADS-B (EDDM / MUC)
07:07PM 50.6333 8.6690 123° Southeast 474 545 41,000  Level FlightAware ADS-B (EDDM / MUC)
07:08PM 50.6098 8.7256 123° Southeast 476 548 41,000  Level FlightAware ADS-B (EDDM / MUC)
07:09PM 50.6808 8.5540 123° Southeast 474 545 41,000  Level FlightAware ADS-B (EDKL)
07:11PM 50.3630 9.3137 124° Southeast 474 545 41,000  Level FlightAware ADS-B (ETSE)
07:12PM 50.3144 9.4281 124° Southeast 475 547 41,000  Level FlightAware ADS-B (ETSE)
07:12PM 50.2782 9.5130 124° Southeast 475 547 41,000  Level FlightAware ADS-B (ETSE)
07:13PM 50.2438 9.5932 124° Southeast 476 548 41,000  Level FlightAware ADS-B (ETSE)
07:13PM 50.2046 9.6842 124° Southeast 477 549 41,000  Level FlightAware ADS-B (ETSE)
07:14PM 50.1668 9.7721 124° Southeast 479 551 41,000  Level FlightAware ADS-B (ETSE)
07:14PM 50.1290 9.8594 124° Southeast 479 551 41,000  Level FlightAware ADS-B (ETSE)
07:15PM 50.0956 9.9365 124° Southeast 480 552 41,000  Level FlightAware ADS-B (EDDM / MUC)
07:15PM 50.0548 10.0302 124° Southeast 481 554 41,000  Level FlightAware ADS-B (ETSE)
07:16PM 50.0262 10.0959 124° Southeast 482 555 41,000  Level FlightAware ADS-B (ETSE)
07:16PM 49.9804 10.2002 124° Southeast 482 555 41,000  Level FlightAware ADS-B (ETSE)
07:17PM 49.9337 10.3064 124° Southeast 480 552 41,000  Level FlightAware ADS-B (ETSE)
07:17PM 49.8999 10.3829 124° Southeast 480 552 41,000  Level FlightAware ADS-B (ETSE)
07:18PM 49.8569 10.4802 125° Southeast 480 552 41,000  Level FlightAware ADS-B (ETSE)
07:18PM 49.8131 10.5786 125° Southeast 482 555 41,000  Level FlightAware ADS-B (ETSE)
07:18PM 49.7983 10.6120 125° Southeast 482 555 41,000  Level FlightAware ADS-B (EDDM / MUC)
07:19PM 49.7610 10.6955 125° Southeast 481 554 41,000  Level FlightAware ADS-B (ETSE)
07:19PM 49.7261 10.7731 125° Southeast 480 552 41,000  Level FlightAware ADS-B (ETSE)
07:20PM 49.6875 10.8591 125° Southeast 480 552 41,000  Level FlightAware ADS-B (ETSE)
07:21PM 49.6429 10.9580 125° Southeast 482 555 41,000  Level FlightAware ADS-B (ETSE)
07:21PM 49.5974 11.0588 125° Southeast 483 556 41,000  Level FlightAware ADS-B (ETSE)
07:22PM 49.5517 11.1594 125° Southeast 482 555 41,000  Level FlightAware ADS-B (EDDM / MUC)
07:22PM 49.5144 11.2440 123° Southeast 479 551 41,000  Level FlightAware ADS-B (EDDM / MUC)
07:23PM 49.4798 11.3357 118° Southeast 480 552 41,000  Level FlightAware ADS-B
07:23PM 49.4484 11.4253 118° Southeast 479 551 41,000  Level FlightAware ADS-B (ETSE)
07:24PM 49.4209 11.5028 119° Southeast 479 551 41,000  Level FlightAware ADS-B (EDDM / MUC)
07:24PM 49.3981 11.5671 118° Southeast 479 551 41,000  Level FlightAware ADS-B (EDDM / MUC)
07:25PM 49.3543 11.6899 119° Southeast 478 550 41,000  Level FlightAware ADS-B (EDDM / MUC)
07:25PM 49.3191 11.7881 119° Southeast 477 549 41,000  Level FlightAware ADS-B (EDDM / MUC)
07:26PM 49.2802 11.8967 119° Southeast 476 548 41,000  Level FlightAware ADS-B (ETSE)
07:26PM 49.2482 11.9854 119° Southeast 475 547 41,000  Level FlightAware ADS-B (EDDM / MUC)
07:27PM 49.2137 12.0809 119° Southeast 475 547 41,000  Level FlightAware ADS-B (ETSE)
07:27PM 49.1831 12.1652 119° Southeast 475 547 41,000  Level FlightAware ADS-B (EDDM / MUC)
07:28PM 49.1526 12.2488 119° Southeast 475 547 41,000  Level FlightAware ADS-B (ETSE)
07:28PM 49.1227 12.3307 119° Southeast 476 548 41,000  Level FlightAware ADS-B (ETSE)
07:29PM 49.0798 12.4476 119° Southeast 476 548 41,000  Level FlightAware ADS-B (EDDM / MUC)
07:30PM 49.0440 12.5448 119° Southeast 479 551 41,000  Level FlightAware ADS-B (ETSE)
07:30PM 49.0026 12.6573 119° Southeast 478 550 41,000  Level FlightAware ADS-B (EDDM / MUC)
07:31PM 48.9645 12.7594 119° Southeast 479 551 41,000  Level FlightAware ADS-B (EDDM / MUC)
07:31PM 48.9306 12.8506 120° Southeast 479 551 41,000  Level FlightAware ADS-B (EDDM / MUC)
07:32PM 48.8993 12.9341 119° Southeast 480 552 41,000  Level FlightAware ADS-B (EDDM / MUC)
07:32PM 48.8644 13.0274 120° Southeast 482 555 41,000  Level FlightAware ADS-B (EDDM / MUC)
07:33PM 48.8325 13.1123 120° Southeast 481 554 41,000  Level FlightAware ADS-B (EDDM / MUC)
07:33PM 48.7914 13.2208 120° Southeast 476 548 41,000  Level FlightAware ADS-B (EDDM / MUC)
07:34PM 48.7574 13.3103 120° Southeast 479 551 41,000  Level FlightAware ADS-B (EDDM / MUC)
07:34PM 48.7263 13.3922 120° Southeast 480 552 41,000  Level FlightAware ADS-B (EDDM / MUC)
07:35PM 48.6900 13.4875 120° Southeast 481 554 41,000  Level FlightAware ADS-B (EDDM / MUC)
07:35PM 48.6617 13.5612 120° Southeast 481 554 41,000  Level FlightAware ADS-B (EDDM / MUC)
07:36PM 48.6297 13.6445 120° Southeast 479 551 41,000  Level FlightAware ADS-B (EDDM / MUC)
07:36PM 48.5902 13.7470 120° Southeast 476 548 41,000  Level FlightAware ADS-B
07:37PM 48.5714 13.7955 119° Southeast 469 540 41,000  Level FlightAware ADS-B
07:37PM 48.5576 13.8312 120° Southeast 472 543 41,000  Level FlightAware ADS-B (EDDM / MUC)
07:37PM 48.5354 13.8883 120° Southeast 470 541 41,000  Level FlightAware ADS-B (ETSE)
07:37PM 48.5249 13.9154 119° Southeast 465 535 41,000  Level FlightAware ADS-B
07:38PM 48.4931 13.9972 120° Southeast 466 536 41,000  Level FlightAware ADS-B (ETSE)
07:38PM 48.4718 14.0518 120° Southeast 459 528 41,000  Level FlightAware ADS-B
07:38PM 48.4645 14.0706 120° Southeast 458 527 41,000  Level FlightAware ADS-B
07:38PM 48.4606 14.0805 120° Southeast 456 525 41,000  Level FlightAware ADS-B
07:39PM 48.4537 14.0981 120° Southeast 455 524 41,000  Level FlightAware ADS-B
07:39PM 48.4424 14.1270 121° Southeast 455 524 41,000  Level FlightAware ADS-B (EDDM / MUC)
07:39PM 48.4396 14.1341 120° Southeast 451 519 41,000  Level FlightAware ADS-B
07:39PM 48.4074 14.2161 121° Southeast 449 517 41,000  Level FlightAware ADS-B
07:40PM 48.3760 14.2959 121° Southeast 448 516 41,000  Level FlightAware ADS-B
07:40PM 48.3427 14.3802 121° Southeast 447 514 41,000  Level FlightAware ADS-B
07:41PM 48.3109 14.4606 121° Southeast 447 514 41,000  Level FlightAware ADS-B
07:41PM 48.2793 14.5402 120° Southeast 447 514 41,000  Level FlightAware ADS-B
07:41PM 48.2716 14.5595 120° Southeast 448 516 41,000  Level FlightAware ADS-B
07:41PM 48.2650 14.5762 121° Southeast 452 520 41,000  Level FlightAware ADS-B (EDDM / MUC)
07:42PM 48.2614 14.5853 121° Southeast 453 521 41,000  Level FlightAware ADS-B (ETSE)
07:42PM 48.2590 14.5912 120° Southeast 449 517 41,000  Level FlightAware ADS-B
07:42PM 48.2485 14.6176 120° Southeast 451 519 41,000  Level FlightAware ADS-B
07:42PM 48.2431 14.6311 120° Southeast 452 520 41,000  Level FlightAware ADS-B
07:42PM 48.2309 14.6614 121° Southeast 457 526 41,000  Level FlightAware ADS-B (EDDM / MUC)
07:42PM 48.2086 14.7174 120° Southeast 454 522 41,000  Level FlightAware ADS-B
07:43PM 48.1995 14.7401 121° Southeast 457 526 41,000  Level FlightAware ADS-B (ETSE)
07:43PM 48.1869 14.7715 121° Southeast 458 527 41,000  Level FlightAware ADS-B (EDDM / MUC)
07:43PM 48.1644 14.8273 120° Southeast 454 522 41,000  Level FlightAware ADS-B
07:43PM 48.1481 14.8679 121° Southeast 458 527 41,000  Level FlightAware ADS-B (ETSE)
07:43PM 48.1376 14.8939 121° Southeast 458 527 41,000  Level FlightAware ADS-B (ETSE)
07:44PM 48.1258 14.9230 120° Southeast 454 522 41,000  Level FlightAware ADS-B
07:44PM 48.1169 14.9452 121° Southeast 458 527 41,000  Level FlightAware ADS-B (ETSE)
07:44PM 48.1151 14.9495 121° Southeast 458 527 41,000  Level FlightAware ADS-B (EDDM / MUC)
07:44PM 48.1022 14.9814 121° Southeast 458 527 41,000  Level FlightAware ADS-B (EDDM / MUC)
07:44PM 48.0924 15.0057 120° Southeast 454 522 41,000  Level FlightAware ADS-B
07:44PM 48.0835 15.0279 120° Southeast 454 522 41,000  Level FlightAware ADS-B
07:44PM 48.0714 15.0576 121° Southeast 459 528 41,000  Level FlightAware ADS-B (ETSE)
07:45PM 48.0624 15.0798 121° Southeast 459 528 41,000  Level FlightAware ADS-B (ETSE)
07:45PM 48.0580 15.0906 120° Southeast 455 524 41,000  Level FlightAware ADS-B
07:45PM 48.0492 15.1122 121° Southeast 459 528 41,000  Level FlightAware ADS-B (EDDM / MUC)
07:45PM 48.0408 15.1328 121° Southeast 460 529 41,000  Level FlightAware ADS-B (ETSE)
07:45PM 48.0039 15.2234 121° Southeast 461 531 41,000  Level FlightAware ADS-B
07:46PM 47.9701 15.3060 121° Southeast 463 533 41,000  Level FlightAware ADS-B
07:46PM 47.9367 15.3876 121° Southeast 464 534 41,000  Level FlightAware ADS-B
07:47PM 47.9117 15.4486 122° Southeast 465 535 41,000  Level FlightAware ADS-B
07:47PM 47.8775 15.5312 122° Southeast 465 535 41,000  Level FlightAware ADS-B
07:48PM 47.8652 15.5611 121° Southeast 465 535 41,000  Level FlightAware ADS-B
07:48PM 47.8598 15.5742 121° Southeast 465 535 41,000  Level FlightAware ADS-B (EDDM / MUC)
07:48PM 47.8248 15.6588 122° Southeast 463 533 41,000  Level FlightAware ADS-B
07:49PM 47.7919 15.7380 122° Southeast 461 531 41,000  Level FlightAware ADS-B
07:49PM 47.7583 15.8183 122° Southeast 460 529 41,000  Level FlightAware ADS-B
07:50PM 47.7243 15.8998 122° Southeast 460 529 41,000  Level FlightAware ADS-B
07:50PM 47.6912 15.9789 122° Southeast 460 529 41,000  Level FlightAware ADS-B
07:51PM 47.6570 16.0601 122° Southeast 460 529 41,000  Level FlightAware ADS-B
07:51PM 47.6240 16.1385 122° Southeast 461 531 41,000  Level FlightAware ADS-B
07:52PM 47.5895 16.2203 122° Southeast 461 531 41,000  Level FlightAware ADS-B
07:52PM 47.5586 16.2949 117° Southeast 457 526 41,000  Level FlightAware ADS-B
07:53PM 47.5226 16.4665 102° East 459 528 41,000  Level FlightAware ADS-B
07:54PM 47.4871 16.7066 102° East 461 531 41,000  Level FlightAware ADS-B
07:56PM 47.4412 17.0138 102° East 461 531 41,000  Level FlightAware ADS-B
07:58PM 47.3946 17.3194 103° East 465 535 41,000  Level FlightAware ADS-B (LHBP / BUD)
07:58PM 47.3897 17.3509 103° East 465 535 41,000  Level FlightAware ADS-B (LHBP / BUD)
07:59PM 47.3610 17.5364 103° East 466 536 41,000  Level FlightAware ADS-B (LHBP / BUD)
08:00PM 47.3383 17.6815 103° East 467 537 41,000  Level FlightAware ADS-B (LHBP / BUD)
08:00PM 47.3206 17.7933 103° East 467 537 41,000  Level FlightAware ADS-B (LHBP / BUD)
08:01PM 47.3011 17.9162 103° East 467 537 41,000  Level FlightAware ADS-B (LHBP / BUD)
08:01PM 47.2864 18.0076 103° East 468 539 41,000  Level FlightAware ADS-B (LHBP / BUD)
08:02PM 47.2714 18.1011 103° East 469 540 41,000  Level FlightAware ADS-B (LHBP / BUD)
08:03PM 47.2527 18.2168 103° East 469 540 41,000  Level FlightAware ADS-B (LHBP / BUD)
08:03PM 47.2358 18.3201 104° East 464 534 41,000  Level FlightAware ADS-B (LHBP / BUD)
08:04PM 47.2167 18.4362 103° East 465 535 41,000  Level FlightAware ADS-B (LHBP / BUD)
08:04PM 47.1957 18.5646 104° East 466 536 41,000  Level FlightAware ADS-B (LHBP / BUD)
08:06PM 47.1510 18.8306 104° East 462 532 41,000  Level FlightAware ADS-B (LHBP / BUD)
08:07PM 47.1182 19.0244 104° East 463 533 41,000  Level FlightAware ADS-B (LHBP / BUD)
08:08PM 47.0938 19.1672 104° East 464 534 41,000  Level FlightAware ADS-B (LHBP / BUD)
08:08PM 47.0788 19.2548 104° East 464 534 41,000  Level FlightAware ADS-B (LHBP / BUD)
08:09PM 47.0625 19.3491 104° East 465 535 41,000  Level FlightAware ADS-B (LHBP / BUD)
08:09PM 47.0455 19.4457 105° East 465 535 41,000  Level FlightAware ADS-B (LHBP / BUD)
08:10PM 47.0288 19.5408 104° East 466 536 41,000  Level FlightAware ADS-B (LHBP / BUD)
08:10PM 47.0127 19.6323 104° East 466 536 41,000  Level FlightAware ADS-B (LHBP / BUD)
08:11PM 46.9973 19.7203 105° East 468 539 41,000  Level FlightAware ADS-B (LHBP / BUD)
08:12PM 46.9729 19.8577 105° East 468 539 41,000  Level FlightAware ADS-B (LHBP / BUD)
08:13PM 46.9319 20.0853 105° East 468 539 41,000  Level FlightAware ADS-B (LRCL / CLJ)
08:13PM 46.9148 20.1793 105° East 469 540 41,000  Level FlightAware ADS-B (LRCL / CLJ)
08:14PM 46.8943 20.2916 105° East 469 540 41,000  Level FlightAware ADS-B (LRCL / CLJ)
08:15PM 46.8801 20.3699 105° East 469 540 41,000  Level FlightAware ADS-B (LRCL / CLJ)
08:15PM 46.8530 20.5157 105° East 470 541 41,000  Level FlightAware ADS-B (LHBP / BUD)
08:16PM 46.8357 20.6093 105° East 470 541 41,000  Level FlightAware ADS-B (LHBP / BUD)
08:16PM 46.8188 20.6998 105° East 471 542 41,000  Level FlightAware ADS-B (LHBP / BUD)
08:17PM 46.8021 20.7890 105° East 471 542 41,000  Level FlightAware ADS-B (LHBP / BUD)
08:17PM 46.7839 20.8849 105° East 471 542 41,000  Level FlightAware ADS-B (LHBP / BUD)
08:18PM 46.7667 20.9758 106° East 470 541 41,000  Level FlightAware ADS-B (LHBP / BUD)
08:18PM 46.7525 21.0513 106° East 469 540 41,000  Level FlightAware ADS-B (LHBP / BUD)
08:19PM 46.7323 21.1569 106° East 468 539 41,000  Level FlightAware ADS-B (LHBP / BUD)
08:19PM 46.7205 21.2187 106° East 468 539 41,000  Level FlightAware ADS-B (LHBP / BUD)
08:20PM 46.7029 21.3094 106° East 467 537 41,000  Level FlightAware ADS-B (LHBP / BUD)
08:20PM 46.6816 21.4193 106° East 467 537 41,000  Level FlightAware ADS-B (LHBP / BUD)
08:21PM 46.6581 21.5393 106° East 467 537 41,000  Level FlightAware ADS-B (LHBP / BUD)
08:21PM 46.6389 21.6381 106° East 466 536 41,000  Level FlightAware ADS-B (LRCL / CLJ)
08:22PM 46.6249 21.7095 106° East 465 535 41,000  Level FlightAware ADS-B (LRCL / CLJ)
08:23PM 46.5948 21.8614 106° East 464 534 41,000  Level FlightAware ADS-B (LRCL / CLJ)
08:23PM 46.5800 21.9353 106° East 463 533 41,000  Level FlightAware ADS-B (LRCL / CLJ)
08:24PM 46.5645 22.0139 104° East 463 533 41,000  Level FlightAware ADS-B (LRCL / CLJ)
08:24PM 46.5462 22.1204 104° East 463 533 41,000  Level FlightAware ADS-B (LRCL / CLJ)
08:25PM 46.5208 22.2677 104° East 464 534 41,000  Level FlightAware ADS-B (LRCL / CLJ)
08:25PM 46.5049 22.3578 104° East 468 539 41,000  Level FlightAware ADS-B (LRCL / CLJ)
08:26PM 46.4805 22.4946 105° East 471 542 41,000  Level FlightAware ADS-B (LRCL / CLJ)
08:27PM 46.4632 22.5891 105° East 472 543 41,000  Level FlightAware ADS-B (LRCL / CLJ)
08:27PM 46.4472 22.6781 105° East 472 543 41,000  Level FlightAware ADS-B (LRCL / CLJ)
08:28PM 46.4276 22.7706 109° East 473 544 41,000  Level FlightAware ADS-B (LRCL / CLJ)
08:28PM 46.4058 22.8579 110° East 473 544 41,000  Level FlightAware ADS-B (LRCL / CLJ)
08:29PM 46.3717 22.9913 110° East 474 545 41,000  Level FlightAware ADS-B (LRCL / CLJ)
08:29PM 46.3487 23.0809 110° East 474 545 41,000  Level FlightAware ADS-B (LRCL / CLJ)
08:30PM 46.3143 23.2147 110° East 474 545 41,000  Level FlightAware ADS-B (LRCL / CLJ)
08:31PM 46.2837 23.3346 110° East 475 547 41,000  Level FlightAware ADS-B (LRCL / CLJ)
08:31PM 46.2580 23.4362 110° East 476 548 41,000  Level FlightAware ADS-B (LRCL / CLJ)
08:32PM 46.2250 23.5668 110° East 475 547 41,000  Level FlightAware ADS-B (LRCL / CLJ)
08:33PM 46.1911 23.7027 110° East 474 545 41,000  Level FlightAware ADS-B (LRCL / CLJ)
08:33PM 46.1687 23.7935 110° East 474 545 41,000  Level FlightAware ADS-B (LRCL / CLJ)
08:34PM 46.1482 23.8774 109° East 474 545 41,000  Level FlightAware ADS-B (LRCL / CLJ)
08:35PM 46.1160 24.0131 109° East 468 539 41,000  Level FlightAware ADS-B (LRCL / CLJ)
08:35PM 46.0975 24.0929 108° East 463 533 41,000  Level FlightAware ADS-B (LRCL / CLJ)
08:36PM 46.0684 24.2194 109° East 457 526 41,000  Level FlightAware ADS-B (LRCL / CLJ)
08:37PM 46.0372 24.3523 109° East 455 524 41,000  Level FlightAware ADS-B (LRCL / CLJ)
08:37PM 46.0144 24.4481 109° East 454 522 41,000  Level FlightAware ADS-B (LRCL / CLJ)
08:38PM 45.9933 24.5369 108° East 455 524 41,000  Level FlightAware ADS-B (LRCL / CLJ)
08:38PM 45.9749 24.6169 108° East 458 527 41,000  Level FlightAware ADS-B (LRCL / CLJ)
08:39PM 45.9537 24.7091 108° East 458 527 41,000  Level FlightAware ADS-B (LRCL / CLJ)
08:39PM 45.9253 24.8322 109° East 463 533 41,000  Level FlightAware ADS-B (LRCL / CLJ)
08:40PM 45.9028 24.9256 109° East 464 534 41,000  Level FlightAware ADS-B (LRCL / CLJ)
08:41PM 45.8708 25.0497 117° Southeast 466 536 41,000  Level FlightAware ADS-B (LRCL / CLJ)
08:41PM 45.8362 25.1364 120° Southeast 467 537 41,000  Level FlightAware ADS-B (LRCL / CLJ)
08:42PM 45.8018 25.2268 116° Southeast 467 537 41,000  Level FlightAware ADS-B (LRCL / CLJ)
08:42PM 45.7652 25.3333 116° Southeast 469 540 41,000  Level FlightAware ADS-B (LRCL / CLJ)
08:43PM 45.7189 25.4674 116° Southeast 471 542 41,000  Level FlightAware ADS-B (LRCL / CLJ)
08:44PM 45.6825 25.5721 116° Southeast 472 543 41,000  Level FlightAware ADS-B (LRCL / CLJ)
08:44PM 45.6682 25.6133 117° Southeast 473 544 41,000  Level FlightAware ADS-B (LRCL / CLJ)
08:45PM 45.6066 25.7898 117° Southeast 471 542 41,000  Level FlightAware ADS-B (LRCL / CLJ)
08:46PM 45.5673 25.9014 117° Southeast 472 543 41,000  Level FlightAware ADS-B (LRCL / CLJ)
08:46PM 45.5224 26.0290 117° Southeast 471 542 41,000  Level FlightAware ADS-B (LRBS / BBU)
08:47PM 45.4902 26.1198 117° Southeast 472 543 41,000  Level FlightAware ADS-B (LRBS / BBU)
08:48PM 45.4586 26.2088 117° Southeast 471 542 41,000  Level FlightAware ADS-B (LRBS / BBU)
08:48PM 45.4257 26.3009 117° Southeast 471 542 41,000  Level FlightAware ADS-B (LRBS / BBU)
08:49PM 45.3994 26.3746 117° Southeast 470 541 41,000  Level FlightAware ADS-B (LRBS / BBU)
08:49PM 45.3641 26.4729 117° Southeast 470 541 41,000  Level FlightAware ADS-B (LRBS / BBU)
08:50PM 45.3391 26.5425 117° Southeast 469 540 41,000  Level FlightAware ADS-B (LRBS / BBU)
08:50PM 45.3045 26.6382 117° Southeast 470 541 41,000  Level FlightAware ADS-B (LRBS / BBU)
08:51PM 45.2772 26.7137 117° Southeast 469 540 41,000  Level FlightAware ADS-B (LRBS / BBU)
08:51PM 45.2366 26.8256 117° Southeast 469 540 41,000  Level FlightAware ADS-B (LRBS / BBU)
08:52PM 45.2064 26.9083 117° Southeast 469 540 41,000  Level FlightAware ADS-B (LRBS / BBU)
08:52PM 45.1753 26.9931 117° Southeast 468 539 41,000  Level FlightAware ADS-B (LRBS / BBU)
08:53PM 45.1408 27.0871 117° Southeast 468 539 41,000  Level FlightAware ADS-B (LRBS / BBU)
08:53PM 45.1068 27.1797 118° Southeast 467 537 41,000  Level FlightAware ADS-B (LRBS / BBU)
08:54PM 45.0758 27.2635 118° Southeast 467 537 41,000  Level FlightAware ADS-B (LRBS / BBU)
08:55PM 45.0430 27.3520 118° Southeast 466 536 41,000  Level FlightAware ADS-B (LRBS / BBU)
08:55PM 45.0069 27.4488 118° Southeast 467 537 41,000  Level FlightAware ADS-B (LRBS / BBU)
08:58PM 44.9735 27.9280 95° East  Level Estimated
08:59PM 44.9590 28.1275 96° East  Level Estimated
09:00PM 44.9441 28.3269 96° East  Level Estimated
09:01PM 44.9289 28.5262 96° East  Level Estimated
09:02PM 44.9133 28.7254 96° East  Level Estimated
09:03PM 44.8974 28.9245 96° East  Level Estimated
09:04PM 44.8812 29.1234 97° East  Level Estimated
09:05PM 44.8646 29.3223 97° East  Level Estimated
09:06PM 44.8476 29.5210 97° East  Level Estimated
09:07PM 44.8304 29.7196 97° East  Level Estimated
09:08PM 44.8127 29.9181 97° East  Level Estimated
09:09PM 44.7948 30.1165 97° East  Level Estimated
09:10PM 44.7765 30.3148 97° East  Level Estimated
09:11PM 44.7578 30.5129 97° East  Level Estimated
09:12PM 44.7388 30.7109 98° East  Level Estimated
09:13PM 44.7195 30.9087 98° East  Level Estimated
09:14PM 44.6998 31.1065 98° East  Level Estimated
09:15PM 44.6797 31.3041 98° East  Level Estimated
09:16PM 44.6594 31.5015 98° East  Level Estimated
09:17PM 44.6387 31.6988 98° East  Level Estimated
09:18PM 44.6176 31.8960 98° East  Level Estimated
09:19PM 44.5962 32.0930 99° East  Level Estimated
09:20PM 44.5745 32.2899 99° East  Level Estimated
09:21PM 44.5525 32.4867 99° East  Level Estimated
09:22PM 44.5301 32.6832 99° East  Level Estimated
09:23PM 44.5073 32.8797 99° East  Level Estimated
09:24PM 44.4843 33.0760 99° East  Level Estimated
09:25PM 44.4609 33.2721 99° East  Level Estimated
09:26PM 44.4371 33.4680 100° East  Level Estimated
09:27PM 44.4130 33.6638 100° East  Level Estimated
09:28PM 44.3886 33.8595 100° East  Level Estimated
09:29PM 44.3639 34.0550 100° East  Level Estimated
09:30PM 44.3388 34.2503 100° East  Level Estimated
09:31PM 44.3134 34.4454 100° East  Level Estimated
09:32PM 44.2877 34.6404 100° East  Level Estimated
09:33PM 44.2616 34.8352 101° East  Level Estimated
09:34PM 44.2352 35.0298 101° East  Level Estimated
09:35PM 44.2085 35.2243 101° East  Level Estimated
09:36PM 44.1814 35.4185 101° East  Level Estimated
09:37PM 44.1540 35.6127 101° East  Level Estimated
09:38PM 44.1263 35.8066 101° East  Level Estimated
09:39PM 44.0982 36.0003 101° East  Level Estimated
09:40PM 44.0698 36.1938 101° East  Level Estimated
09:41PM 44.0411 36.3872 102° East  Level Estimated
09:42PM 44.0121 36.5804 102° East  Level Estimated
09:43PM 43.9828 36.7733 102° East  Level Estimated
09:44PM 43.9531 36.9661 102° East  Level Estimated
09:45PM 43.9231 37.1587 102° East  Level Estimated
09:46PM 43.8928 37.3511 102° East  Level Estimated
09:47PM 43.8621 37.5433 102° East  Level Estimated
09:48PM 43.8311 37.7354 103° East  Level Estimated
09:49PM 43.7999 37.9272 103° East  Level Estimated
09:50PM 43.7682 38.1188 103° East  Level Estimated
09:51PM 43.7363 38.3102 103° East  Level Estimated
09:52PM 43.7041 38.5014 103° East  Level Estimated
09:53PM 43.6715 38.6923 103° East  Level Estimated
09:54PM 43.6386 38.8831 103° East  Level Estimated
09:55PM 43.6054 39.0737 103° East  Level Estimated
09:56PM 43.5719 39.2640 104° East  Level Estimated
09:57PM 43.5381 39.4542 104° East  Level Estimated
09:58PM 43.5039 39.6441 104° East  Level Estimated
09:59PM 43.4695 39.8338 104° East  Level Estimated
10:00PM 43.4347 40.0233 104° East  Level Estimated
10:01PM 43.3996 40.2126 104° East  Level Estimated
10:02PM 43.3642 40.4017 104° East  Level Estimated
10:03PM 43.3285 40.5905 105° East  Level Estimated
10:04PM 43.2924 40.7791 105° East  Level Estimated
10:05PM 43.2561 40.9675 105° East  Level Estimated
10:06PM 43.2195 41.1557 105° East  Level Estimated
10:07PM 43.1825 41.3436 105° East  Level Estimated
10:08PM 43.1453 41.5313 105° East  Level Estimated
10:09PM 43.1077 41.7188 105° East  Level Estimated
10:10PM 43.0699 41.9061 105° East  Level Estimated
10:11PM 43.0317 42.0931 106° East  Level Estimated
10:12PM 42.9932 42.2799 106° East  Level Estimated
10:13PM 42.9544 42.4664 106° East  Level Estimated
10:14PM 42.9153 42.6527 106° East  Level Estimated
10:15PM 42.8760 42.8388 106° East  Level Estimated
10:16PM 42.8363 43.0247 106° East  Level Estimated
10:17PM 42.7963 43.2103 106° East  Level Estimated
10:18PM 42.7560 43.3956 106° East  Level Estimated
10:19PM 42.7154 43.5807 107° East  Level Estimated
10:20PM 42.6745 43.7656 107° East  Level Estimated
10:21PM 42.6334 43.9502 107° East  Level Estimated
10:22PM 42.5919 44.1346 107° East  Level Estimated
10:23PM 42.5501 44.3188 107° East  Level Estimated
10:24PM 42.5081 44.5027 107° East  Level Estimated
10:25PM 42.4657 44.6863 107° East  Level Estimated
10:26PM 42.4231 44.8697 107° East  Level Estimated
10:27PM 42.3801 45.0528 108° East  Level Estimated
10:28PM 42.3369 45.2357 108° East  Level Estimated
10:29PM 42.2934 45.4184 108° East  Level Estimated
10:30PM 42.2495 45.6008 108° East  Level Estimated
10:31PM 42.2054 45.7829 108° East  Level Estimated
10:32PM 42.1611 45.9648 108° East  Level Estimated
10:33PM 42.1164 46.1464 108° East  Level Estimated
10:34PM 42.0714 46.3278 108° East  Level Estimated
10:35PM 42.0262 46.5089 109° East  Level Estimated
10:36PM 41.9807 46.6897 109° East  Level Estimated
10:37PM 41.9348 46.8703 109° East  Level Estimated
10:38PM 41.8887 47.0507 109° East  Level Estimated
10:39PM 41.8424 47.2307 109° East  Level Estimated
10:40PM 41.7957 47.4105 109° East  Level Estimated
10:41PM 41.7488 47.5901 109° East  Level Estimated
10:42PM 41.7015 47.7694 109° East  Level Estimated
10:43PM 41.6540 47.9484 109° East  Level Estimated
10:44PM 41.6063 48.1271 110° East  Level Estimated
10:45PM 41.5582 48.3056 110° East  Level Estimated
10:46PM 41.5099 48.4839 110° East  Level Estimated
10:47PM 41.4613 48.6618 110° East  Level Estimated
10:48PM 41.4124 48.8395 110° East  Level Estimated
10:49PM 41.3633 49.0169 110° East  Level Estimated
10:50PM 41.3139 49.1941 110° East  Level Estimated
10:51PM 41.2642 49.3710 110° East  Level Estimated
10:52PM 41.2142 49.5476 111° Southeast  Level Estimated
10:53PM 41.1640 49.7239 111° Southeast  Level Estimated
10:54PM 41.1135 49.9000 111° Southeast  Level Estimated
10:55PM 41.0627 50.0758 111° Southeast  Level Estimated
10:56PM 41.0117 50.2513 111° Southeast  Level Estimated
10:57PM 40.9604 50.4266 111° Southeast  Level Estimated
10:58PM 40.9088 50.6016 111° Southeast  Level Estimated
10:59PM 40.8570 50.7763 111° Southeast  Level Estimated
11:00PM 40.8049 50.9507 111° Southeast  Level Estimated
11:01PM 40.7525 51.1249 112° Southeast  Level Estimated
11:02PM 40.6999 51.2988 112° Southeast  Level Estimated
11:03PM 40.6470 51.4724 112° Southeast  Level Estimated
11:04PM 40.5939 51.6457 112° Southeast  Level Estimated
11:05PM 40.5405 51.8188 112° Southeast  Level Estimated
11:06PM 40.4869 51.9916 112° Southeast  Level Estimated
11:07PM 40.4330 52.1641 112° Southeast  Level Estimated
11:08PM 40.3788 52.3363 112° Southeast  Level Estimated
11:09PM 40.3244 52.5083 112° Southeast  Level Estimated
11:10PM 40.2697 52.6799 113° Southeast  Level Estimated
11:11PM 40.2148 52.8513 113° Southeast  Level Estimated
11:12PM 40.1596 53.0225 113° Southeast  Level Estimated
11:13PM 40.1042 53.1933 113° Southeast  Level Estimated
11:14PM 40.0485 53.3639 113° Southeast  Level Estimated
11:15PM 39.9925 53.5341 113° Southeast  Level Estimated
11:16PM 39.9364 53.7042 113° Southeast  Level Estimated
11:17PM 39.8799 53.8739 113° Southeast  Level Estimated
11:18PM 39.8233 54.0433 113° Southeast  Level Estimated
11:19PM 39.7663 54.2125 114° Southeast  Level Estimated
11:20PM 39.7092 54.3814 114° Southeast  Level Estimated
11:21PM 39.6518 54.5500 114° Southeast  Level Estimated
11:22PM 39.5941 54.7183 114° Southeast  Level Estimated
11:23PM 39.5362 54.8863 114° Southeast  Level Estimated
11:24PM 39.4781 55.0541 114° Southeast  Level Estimated
11:25PM 39.4197 55.2216 114° Southeast  Level Estimated
11:26PM 39.3611 55.3888 114° Southeast  Level Estimated
11:27PM 39.3022 55.5557 114° Southeast  Level Estimated
11:28PM 39.2431 55.7224 115° Southeast  Level Estimated
11:29PM 39.1838 55.8887 115° Southeast  Level Estimated
11:30PM 39.1242 56.0548 115° Southeast  Level Estimated
11:31PM 39.0644 56.2206 115° Southeast  Level Estimated
11:32PM 39.0044 56.3861 115° Southeast  Level Estimated
11:33PM 38.9441 56.5513 115° Southeast  Level Estimated
11:34PM 38.8836 56.7163 115° Southeast  Level Estimated
11:35PM 38.8229 56.8810 115° Southeast  Level Estimated
11:36PM 38.7619 57.0454 115° Southeast  Level Estimated
11:37PM 38.7007 57.2095 115° Southeast  Level Estimated
11:38PM 38.6393 57.3733 116° Southeast  Level Estimated
11:39PM 38.5776 57.5368 116° Southeast  Level Estimated
11:40PM 38.5158 57.7001 116° Southeast  Level Estimated
11:41PM 38.4537 57.8631 116° Southeast  Level Estimated
11:42PM 38.3913 58.0258 116° Southeast  Level Estimated
11:43PM 38.3288 58.1882 116° Southeast  Level Estimated
11:44PM 38.2660 58.3504 116° Southeast  Level Estimated
11:45PM 38.2030 58.5122 116° Southeast  Level Estimated
11:46PM 38.1398 58.6738 116° Southeast  Level Estimated
11:47PM 38.0763 58.8351 117° Southeast  Level Estimated
11:48PM 38.0126 58.9961 117° Southeast  Level Estimated
11:49PM 37.9488 59.1569 117° Southeast  Level Estimated
11:50PM 37.8847 59.3173 117° Southeast  Level Estimated
11:51PM 37.8203 59.4775 117° Southeast  Level Estimated
11:52PM 37.7558 59.6374 117° Southeast  Level Estimated
11:53PM 37.6911 59.7971 117° Southeast  Level Estimated
11:54PM 37.6261 59.9564 117° Southeast  Level Estimated
11:55PM 37.5609 60.1155 117° Southeast  Level Estimated
11:56PM 37.4955 60.2743 117° Southeast  Level Estimated
11:57PM 37.4299 60.4328 117° Southeast  Level Estimated
11:58PM 37.3641 60.5910 118° Southeast  Level Estimated
11:59PM 37.2980 60.7489 118° Southeast  Level Estimated
12:00AM 37.2318 60.9066 118° Southeast  Level Estimated
12:01AM 37.1654 61.0640 118° Southeast  Level Estimated
12:02AM 37.0987 61.2211 118° Southeast  Level Estimated
12:03AM 37.0318 61.3780 118° Southeast  Level Estimated
12:04AM 36.9648 61.5345 118° Southeast  Level Estimated
12:05AM 36.8975 61.6908 118° Southeast  Level Estimated
12:06AM 36.8300 61.8469 118° Southeast  Level Estimated
12:07AM 36.7624 62.0026 118° Southeast  Level Estimated
12:08AM 36.6945 62.1581 119° Southeast  Level Estimated
12:09AM 36.6264 62.3133 119° Southeast  Level Estimated
12:10AM 36.5581 62.4682 119° Southeast  Level Estimated
12:11AM 36.4896 62.6228 119° Southeast  Level Estimated
12:12AM 36.4209 62.7772 119° Southeast  Level Estimated
12:13AM 36.3521 62.9313 119° Southeast  Level Estimated
12:14AM 36.2830 63.0851 119° Southeast  Level Estimated
12:15AM 36.2137 63.2387 119° Southeast  Level Estimated
12:16AM 36.1442 63.3919 119° Southeast  Level Estimated
12:17AM 36.0746 63.5449 119° Southeast  Level Estimated
12:18AM 36.0047 63.6977 119° Southeast  Level Estimated
12:19AM 35.9346 63.8502 120° Southeast  Level Estimated
12:20AM 35.8644 64.0023 120° Southeast  Level Estimated
12:21AM 35.7939 64.1543 120° Southeast  Level Estimated
12:22AM 35.7233 64.3059 120° Southeast  Level Estimated
12:23AM 35.6525 64.4573 120° Southeast  Level Estimated
12:24AM 35.5815 64.6084 120° Southeast  Level Estimated
12:25AM 35.5103 64.7593 120° Southeast  Level Estimated
12:26AM 35.4389 64.9099 120° Southeast  Level Estimated
12:27AM 35.3673 65.0602 120° Southeast  Level Estimated
12:28AM 35.2956 65.2102 120° Southeast  Level Estimated
12:29AM 35.2236 65.3600 120° Southeast  Level Estimated
12:30AM 35.1515 65.5095 121° Southeast  Level Estimated
12:31AM 35.0792 65.6588 121° Southeast  Level Estimated
12:32AM 35.0067 65.8078 121° Southeast  Level Estimated
12:33AM 34.9340 65.9565 121° Southeast  Level Estimated
12:34AM 34.8612 66.1049 121° Southeast  Level Estimated
12:35AM 34.7881 66.2531 121° Southeast  Level Estimated
12:36AM 34.7149 66.4011 121° Southeast  Level Estimated
12:37AM 34.6415 66.5488 121° Southeast  Level Estimated
12:38AM 34.5680 66.6962 121° Southeast  Level Estimated
12:39AM 34.4942 66.8433 121° Southeast  Level Estimated
12:40AM 34.4203 66.9902 121° Southeast  Level Estimated
12:41AM 34.3462 67.1368 121° Southeast  Level Estimated
12:42AM 34.2719 67.2832 122° Southeast  Level Estimated
12:43AM 34.1975 67.4293 122° Southeast  Level Estimated
12:44AM 34.1228 67.5752 122° Southeast  Level Estimated
12:45AM 34.0480 67.7207 122° Southeast  Level Estimated
12:46AM 33.9731 67.8661 122° Southeast  Level Estimated
12:47AM 33.8980 68.0112 122° Southeast  Level Estimated
12:48AM 33.8227 68.1560 122° Southeast  Level Estimated
12:49AM 33.7472 68.3006 122° Southeast  Level Estimated
12:50AM 33.6715 68.4449 122° Southeast  Level Estimated
12:51AM 33.5957 68.5890 122° Southeast  Level Estimated
12:52AM 33.5197 68.7328 122° Southeast  Level Estimated
12:53AM 33.4436 68.8763 122° Southeast  Level Estimated
12:54AM 33.3673 69.0196 122° Southeast  Level Estimated
12:55AM 33.2908 69.1627 123° Southeast  Level Estimated
12:56AM 33.2142 69.3055 123° Southeast  Level Estimated
12:57AM 33.1374 69.4480 123° Southeast  Level Estimated
12:58AM 33.0605 69.5903 123° Southeast  Level Estimated
12:59AM 32.9833 69.7324 123° Southeast  Level Estimated
01:00AM 32.9061 69.8742 123° Southeast  Level Estimated
01:01AM 32.8286 70.0157 123° Southeast  Level Estimated
01:02AM 32.7510 70.1571 123° Southeast  Level Estimated
01:03AM 32.6732 70.2981 123° Southeast  Level Estimated
01:04AM 32.5953 70.4389 123° Southeast  Level Estimated
01:05AM 32.5173 70.5795 123° Southeast  Level Estimated
01:06AM 32.4390 70.7198 123° Southeast  Level Estimated
01:07AM 32.3606 70.8599 123° Southeast  Level Estimated
01:08AM 32.2821 70.9998 124° Southeast  Level Estimated
01:09AM 32.2034 71.1394 124° Southeast  Level Estimated
01:10AM 32.1246 71.2787 124° Southeast  Level Estimated
01:11AM 32.0456 71.4179 124° Southeast  Level Estimated
01:12AM 31.9664 71.5567 124° Southeast  Level Estimated
01:13AM 31.8871 71.6954 124° Southeast  Level Estimated
01:14AM 31.8077 71.8338 124° Southeast  Level Estimated
01:15AM 31.7281 71.9719 124° Southeast  Level Estimated
01:16AM 31.6483 72.1099 124° Southeast  Level Estimated
01:17AM 31.5684 72.2476 124° Southeast  Level Estimated
01:18AM 31.4884 72.3850 124° Southeast  Level Estimated
01:19AM 31.4082 72.5222 124° Southeast  Level Estimated
01:20AM 31.3279 72.6592 124° Southeast  Level Estimated
01:21AM 31.2474 72.7960 125° Southeast  Level Estimated
01:22AM 31.1667 72.9325 125° Southeast  Level Estimated
01:23AM 31.0860 73.0688 125° Southeast  Level Estimated
01:24AM 31.0051 73.2048 125° Southeast  Level Estimated
01:25AM 30.9240 73.3406 125° Southeast  Level Estimated
01:26AM 30.8428 73.4762 125° Southeast  Level Estimated
01:27AM 30.7615 73.6116 125° Southeast  Level Estimated
01:28AM 30.6800 73.7467 125° Southeast  Level Estimated
01:29AM 30.5984 73.8816 125° Southeast  Level Estimated
01:30AM 30.5166 74.0163 125° Southeast  Level Estimated
01:31AM 30.4347 74.1507 125° Southeast  Level Estimated
01:32AM 30.3527 74.2850 125° Southeast  Level Estimated
01:33AM 30.2705 74.4190 125° Southeast  Level Estimated
01:34AM 30.1882 74.5527 125° Southeast  Level Estimated
01:35AM 30.1058 74.6863 125° Southeast  Level Estimated
01:36AM 30.0232 74.8196 126° Southeast  Level Estimated
01:37AM 29.9405 74.9527 126° Southeast  Level Estimated
01:38AM 29.8576 75.0856 126° Southeast  Level Estimated
01:39AM 29.7747 75.2183 126° Southeast  Level Estimated
01:40AM 29.6916 75.3507 126° Southeast  Level Estimated
01:41AM 29.6083 75.4830 126° Southeast  Level Estimated
01:42AM 29.5249 75.6150 126° Southeast  Level Estimated
01:43AM 29.4414 75.7468 126° Southeast  Level Estimated
01:44AM 29.3578 75.8783 126° Southeast  Level Estimated
01:45AM 29.2740 76.0097 126° Southeast  Level Estimated
01:46AM 29.1902 76.1408 126° Southeast  Level Estimated
01:47AM 29.1061 76.2718 126° Southeast  Level Estimated
01:48AM 29.0220 76.4025 126° Southeast  Level Estimated
01:49AM 28.9377 76.5330 126° Southeast  Level Estimated
01:50AM 28.8533 76.6633 126° Southeast  Level Estimated
01:51AM 28.7688 76.7933 127° Southeast  Level Estimated
01:52AM 28.6842 76.9232 127° Southeast  Level Estimated